<?xml version="1.0" encoding="UTF-8" standalone="no" ?>
<gpx xmlns="http://www.topografix.com/GPX/1/1" xmlns:xsi="http://www.w3.org/2001/XMLSchema-instance" xsi:schemaLocation="http://www.topografix.com/GPX/1/1 http://www.topografix.com/GPX/1/1/gpx.xsd" version="1.1" creator="VisuGPX - https://www.visugpx.com">
  <metadata>
    <name>Tour de la tête de chien</name>
  </metadata>
  <trk>
    <name><![CDATA[Tour de la tête de chien]]></name>
    <trkseg>
      <trkpt lat="43.74468" lon="7.40013">
        <ele>473.353</ele>
        <time>2016-07-29T15:38:04Z</time>
      </trkpt>
      <trkpt lat="43.74468" lon="7.40013">
        <ele>473.353</ele>
        <time>2016-07-29T15:38:04Z</time>
      </trkpt>
      <trkpt lat="43.74468" lon="7.40013">
        <ele>473.353</ele>
        <time>2016-07-29T15:38:04Z</time>
      </trkpt>
      <trkpt lat="43.74462" lon="7.40011">
        <ele>472.738</ele>
        <time>2016-07-29T15:38:11Z</time>
      </trkpt>
      <trkpt lat="43.74457" lon="7.40012">
        <ele>471.556</ele>
        <time>2016-07-29T15:38:17Z</time>
      </trkpt>
      <trkpt lat="43.74452" lon="7.40009">
        <ele>470.143</ele>
        <time>2016-07-29T15:38:23Z</time>
      </trkpt>
      <trkpt lat="43.74452" lon="7.40009">
        <ele>470.143</ele>
        <time>2016-07-29T15:38:23Z</time>
      </trkpt>
      <trkpt lat="43.74447" lon="7.40008">
        <ele>470.765</ele>
        <time>2016-07-29T15:38:27Z</time>
      </trkpt>
      <trkpt lat="43.74441" lon="7.40007">
        <ele>470.367</ele>
        <time>2016-07-29T15:38:31Z</time>
      </trkpt>
      <trkpt lat="43.74436" lon="7.40006">
        <ele>471.093</ele>
        <time>2016-07-29T15:38:35Z</time>
      </trkpt>
      <trkpt lat="43.74432" lon="7.40004">
        <ele>470.719</ele>
        <time>2016-07-29T15:38:39Z</time>
      </trkpt>
      <trkpt lat="43.74426" lon="7.40003">
        <ele>471.23</ele>
        <time>2016-07-29T15:38:43Z</time>
      </trkpt>
      <trkpt lat="43.74422" lon="7.40003">
        <ele>471.716</ele>
        <time>2016-07-29T15:38:46Z</time>
      </trkpt>
      <trkpt lat="43.74417" lon="7.40006">
        <ele>472.95</ele>
        <time>2016-07-29T15:38:50Z</time>
      </trkpt>
      <trkpt lat="43.74413" lon="7.40012">
        <ele>473.834</ele>
        <time>2016-07-29T15:38:54Z</time>
      </trkpt>
      <trkpt lat="43.74409" lon="7.40014">
        <ele>473.991</ele>
        <time>2016-07-29T15:38:59Z</time>
      </trkpt>
      <trkpt lat="43.74413" lon="7.40019">
        <ele>473.085</ele>
        <time>2016-07-29T15:39:05Z</time>
      </trkpt>
      <trkpt lat="43.74416" lon="7.40024">
        <ele>475.246</ele>
        <time>2016-07-29T15:39:15Z</time>
      </trkpt>
      <trkpt lat="43.74414" lon="7.40031">
        <ele>476.505</ele>
        <time>2016-07-29T15:39:19Z</time>
      </trkpt>
      <trkpt lat="43.7441" lon="7.40034">
        <ele>476.418</ele>
        <time>2016-07-29T15:39:23Z</time>
      </trkpt>
      <trkpt lat="43.74408" lon="7.4004">
        <ele>477.152</ele>
        <time>2016-07-29T15:39:30Z</time>
      </trkpt>
      <trkpt lat="43.74406" lon="7.40046">
        <ele>477.704</ele>
        <time>2016-07-29T15:39:36Z</time>
      </trkpt>
      <trkpt lat="43.74401" lon="7.40046">
        <ele>477.82</ele>
        <time>2016-07-29T15:39:41Z</time>
      </trkpt>
      <trkpt lat="43.74396" lon="7.40045">
        <ele>479.661</ele>
        <time>2016-07-29T15:39:45Z</time>
      </trkpt>
      <trkpt lat="43.74391" lon="7.40045">
        <ele>481.831</ele>
        <time>2016-07-29T15:39:49Z</time>
      </trkpt>
      <trkpt lat="43.74386" lon="7.40047">
        <ele>482.557</ele>
        <time>2016-07-29T15:39:53Z</time>
      </trkpt>
      <trkpt lat="43.74381" lon="7.40045">
        <ele>482.26</ele>
        <time>2016-07-29T15:39:56Z</time>
      </trkpt>
      <trkpt lat="43.74376" lon="7.40042">
        <ele>480.984</ele>
        <time>2016-07-29T15:39:59Z</time>
      </trkpt>
      <trkpt lat="43.74372" lon="7.40038">
        <ele>481.274</ele>
        <time>2016-07-29T15:40:02Z</time>
      </trkpt>
      <trkpt lat="43.74367" lon="7.4004">
        <ele>481.831</ele>
        <time>2016-07-29T15:40:06Z</time>
      </trkpt>
      <trkpt lat="43.74362" lon="7.40041">
        <ele>482.131</ele>
        <time>2016-07-29T15:40:10Z</time>
      </trkpt>
      <trkpt lat="43.74358" lon="7.40037">
        <ele>481.993</ele>
        <time>2016-07-29T15:40:13Z</time>
      </trkpt>
      <trkpt lat="43.74353" lon="7.40034">
        <ele>481.948</ele>
        <time>2016-07-29T15:40:17Z</time>
      </trkpt>
      <trkpt lat="43.74348" lon="7.40033">
        <ele>480.463</ele>
        <time>2016-07-29T15:40:23Z</time>
      </trkpt>
      <trkpt lat="43.74344" lon="7.40035">
        <ele>479.348</ele>
        <time>2016-07-29T15:40:32Z</time>
      </trkpt>
      <trkpt lat="43.7434" lon="7.40039">
        <ele>477.959</ele>
        <time>2016-07-29T15:40:42Z</time>
      </trkpt>
      <trkpt lat="43.74338" lon="7.40045">
        <ele>478.138</ele>
        <time>2016-07-29T15:40:48Z</time>
      </trkpt>
      <trkpt lat="43.74332" lon="7.40047">
        <ele>479.06</ele>
        <time>2016-07-29T15:40:54Z</time>
      </trkpt>
      <trkpt lat="43.74327" lon="7.40046">
        <ele>478.73</ele>
        <time>2016-07-29T15:40:58Z</time>
      </trkpt>
      <trkpt lat="43.74323" lon="7.40045">
        <ele>480.767</ele>
        <time>2016-07-29T15:41:04Z</time>
      </trkpt>
      <trkpt lat="43.74318" lon="7.40042">
        <ele>481.015</ele>
        <time>2016-07-29T15:41:08Z</time>
      </trkpt>
      <trkpt lat="43.74312" lon="7.40043">
        <ele>480.122</ele>
        <time>2016-07-29T15:41:13Z</time>
      </trkpt>
      <trkpt lat="43.74307" lon="7.40041">
        <ele>480.514</ele>
        <time>2016-07-29T15:41:16Z</time>
      </trkpt>
      <trkpt lat="43.74301" lon="7.40039">
        <ele>483.998</ele>
        <time>2016-07-29T15:41:37Z</time>
      </trkpt>
      <trkpt lat="43.74296" lon="7.4004">
        <ele>485.107</ele>
        <time>2016-07-29T15:41:41Z</time>
      </trkpt>
      <trkpt lat="43.74291" lon="7.40038">
        <ele>485.147</ele>
        <time>2016-07-29T15:41:44Z</time>
      </trkpt>
      <trkpt lat="43.74287" lon="7.40034">
        <ele>485.907</ele>
        <time>2016-07-29T15:41:48Z</time>
      </trkpt>
      <trkpt lat="43.74282" lon="7.40031">
        <ele>486.524</ele>
        <time>2016-07-29T15:41:51Z</time>
      </trkpt>
      <trkpt lat="43.74278" lon="7.4003">
        <ele>486.928</ele>
        <time>2016-07-29T15:41:54Z</time>
      </trkpt>
      <trkpt lat="43.74273" lon="7.40029">
        <ele>487.12</ele>
        <time>2016-07-29T15:41:58Z</time>
      </trkpt>
      <trkpt lat="43.74268" lon="7.40029">
        <ele>487.185</ele>
        <time>2016-07-29T15:42:02Z</time>
      </trkpt>
      <trkpt lat="43.74263" lon="7.4003">
        <ele>487.313</ele>
        <time>2016-07-29T15:42:05Z</time>
      </trkpt>
      <trkpt lat="43.74257" lon="7.40031">
        <ele>487.386</ele>
        <time>2016-07-29T15:42:09Z</time>
      </trkpt>
      <trkpt lat="43.74253" lon="7.4003">
        <ele>486.166</ele>
        <time>2016-07-29T15:42:14Z</time>
      </trkpt>
      <trkpt lat="43.74248" lon="7.4003">
        <ele>485.309</ele>
        <time>2016-07-29T15:42:18Z</time>
      </trkpt>
      <trkpt lat="43.74244" lon="7.40027">
        <ele>484.935</ele>
        <time>2016-07-29T15:42:22Z</time>
      </trkpt>
      <trkpt lat="43.74239" lon="7.4003">
        <ele>483.651</ele>
        <time>2016-07-29T15:42:26Z</time>
      </trkpt>
      <trkpt lat="43.74234" lon="7.40033">
        <ele>483.176</ele>
        <time>2016-07-29T15:42:30Z</time>
      </trkpt>
      <trkpt lat="43.74228" lon="7.40033">
        <ele>483.959</ele>
        <time>2016-07-29T15:42:35Z</time>
      </trkpt>
      <trkpt lat="43.74222" lon="7.40033">
        <ele>483.976</ele>
        <time>2016-07-29T15:42:39Z</time>
      </trkpt>
      <trkpt lat="43.74218" lon="7.40032">
        <ele>484.102</ele>
        <time>2016-07-29T15:42:42Z</time>
      </trkpt>
      <trkpt lat="43.74212" lon="7.40033">
        <ele>483.967</ele>
        <time>2016-07-29T15:42:46Z</time>
      </trkpt>
      <trkpt lat="43.74208" lon="7.40035">
        <ele>481.503</ele>
        <time>2016-07-29T15:42:50Z</time>
      </trkpt>
      <trkpt lat="43.74203" lon="7.40035">
        <ele>481.87</ele>
        <time>2016-07-29T15:42:54Z</time>
      </trkpt>
      <trkpt lat="43.74199" lon="7.40033">
        <ele>482.313</ele>
        <time>2016-07-29T15:43:00Z</time>
      </trkpt>
      <trkpt lat="43.74194" lon="7.40031">
        <ele>482.512</ele>
        <time>2016-07-29T15:43:05Z</time>
      </trkpt>
      <trkpt lat="43.74189" lon="7.40032">
        <ele>481.908</ele>
        <time>2016-07-29T15:43:09Z</time>
      </trkpt>
      <trkpt lat="43.74186" lon="7.40038">
        <ele>482.652</ele>
        <time>2016-07-29T15:43:14Z</time>
      </trkpt>
      <trkpt lat="43.74185" lon="7.40044">
        <ele>482.641</ele>
        <time>2016-07-29T15:43:19Z</time>
      </trkpt>
      <trkpt lat="43.74182" lon="7.40051">
        <ele>483.211</ele>
        <time>2016-07-29T15:43:24Z</time>
      </trkpt>
      <trkpt lat="43.7418" lon="7.40056">
        <ele>482.646</ele>
        <time>2016-07-29T15:43:29Z</time>
      </trkpt>
      <trkpt lat="43.74175" lon="7.4006">
        <ele>483.862</ele>
        <time>2016-07-29T15:43:35Z</time>
      </trkpt>
      <trkpt lat="43.74171" lon="7.40064">
        <ele>483.718</ele>
        <time>2016-07-29T15:43:39Z</time>
      </trkpt>
      <trkpt lat="43.74171" lon="7.40071">
        <ele>483.73</ele>
        <time>2016-07-29T15:43:44Z</time>
      </trkpt>
      <trkpt lat="43.74171" lon="7.40078">
        <ele>484.132</ele>
        <time>2016-07-29T15:43:48Z</time>
      </trkpt>
      <trkpt lat="43.74167" lon="7.40082">
        <ele>485.162</ele>
        <time>2016-07-29T15:43:52Z</time>
      </trkpt>
      <trkpt lat="43.74164" lon="7.40087">
        <ele>484.885</ele>
        <time>2016-07-29T15:43:58Z</time>
      </trkpt>
      <trkpt lat="43.74162" lon="7.40093">
        <ele>484.95</ele>
        <time>2016-07-29T15:44:02Z</time>
      </trkpt>
      <trkpt lat="43.74161" lon="7.40101">
        <ele>484.75</ele>
        <time>2016-07-29T15:44:06Z</time>
      </trkpt>
      <trkpt lat="43.74161" lon="7.40107">
        <ele>484.104</ele>
        <time>2016-07-29T15:44:10Z</time>
      </trkpt>
      <trkpt lat="43.74161" lon="7.40114">
        <ele>482.883</ele>
        <time>2016-07-29T15:44:13Z</time>
      </trkpt>
      <trkpt lat="43.74159" lon="7.40121">
        <ele>483.002</ele>
        <time>2016-07-29T15:44:17Z</time>
      </trkpt>
      <trkpt lat="43.74158" lon="7.40128">
        <ele>482.272</ele>
        <time>2016-07-29T15:44:20Z</time>
      </trkpt>
      <trkpt lat="43.74159" lon="7.40135">
        <ele>482.853</ele>
        <time>2016-07-29T15:44:24Z</time>
      </trkpt>
      <trkpt lat="43.74159" lon="7.40141">
        <ele>478.946</ele>
        <time>2016-07-29T15:44:33Z</time>
      </trkpt>
      <trkpt lat="43.74156" lon="7.40147">
        <ele>475.341</ele>
        <time>2016-07-29T15:44:39Z</time>
      </trkpt>
      <trkpt lat="43.74154" lon="7.40153">
        <ele>476.927</ele>
        <time>2016-07-29T15:44:46Z</time>
      </trkpt>
      <trkpt lat="43.74151" lon="7.40159">
        <ele>475.983</ele>
        <time>2016-07-29T15:44:50Z</time>
      </trkpt>
      <trkpt lat="43.74153" lon="7.40161">
        <ele>479.224</ele>
        <time>2016-07-29T15:45:08Z</time>
      </trkpt>
      <trkpt lat="43.74151" lon="7.40158">
        <ele>473.538</ele>
        <time>2016-07-29T15:45:47Z</time>
      </trkpt>
      <trkpt lat="43.74152" lon="7.40162">
        <ele>471.358</ele>
        <time>2016-07-29T15:46:21Z</time>
      </trkpt>
      <trkpt lat="43.74151" lon="7.4016">
        <ele>471.669</ele>
        <time>2016-07-29T15:47:01Z</time>
      </trkpt>
      <trkpt lat="43.74154" lon="7.40165">
        <ele>478.029</ele>
        <time>2016-07-29T15:47:15Z</time>
      </trkpt>
      <trkpt lat="43.74152" lon="7.40164">
        <ele>477.146</ele>
        <time>2016-07-29T15:47:21Z</time>
      </trkpt>
      <trkpt lat="43.74149" lon="7.40159">
        <ele>475.69</ele>
        <time>2016-07-29T15:47:50Z</time>
      </trkpt>
      <trkpt lat="43.74149" lon="7.40159">
        <ele>473.098</ele>
        <time>2016-07-29T15:48:01Z</time>
      </trkpt>
      <trkpt lat="43.74154" lon="7.40158">
        <ele>477.167</ele>
        <time>2016-07-29T15:48:49Z</time>
      </trkpt>
      <trkpt lat="43.74158" lon="7.40159">
        <ele>475.877</ele>
        <time>2016-07-29T15:48:54Z</time>
      </trkpt>
      <trkpt lat="43.74153" lon="7.40157">
        <ele>476.618</ele>
        <time>2016-07-29T15:49:17Z</time>
      </trkpt>
      <trkpt lat="43.74157" lon="7.40157">
        <ele>480.134</ele>
        <time>2016-07-29T15:50:19Z</time>
      </trkpt>
      <trkpt lat="43.74158" lon="7.40161">
        <ele>479.539</ele>
        <time>2016-07-29T15:50:33Z</time>
      </trkpt>
      <trkpt lat="43.74155" lon="7.40156">
        <ele>473.556</ele>
        <time>2016-07-29T15:50:45Z</time>
      </trkpt>
      <trkpt lat="43.7415" lon="7.40158">
        <ele>474.138</ele>
        <time>2016-07-29T15:50:52Z</time>
      </trkpt>
      <trkpt lat="43.74145" lon="7.40163">
        <ele>473.519</ele>
        <time>2016-07-29T15:50:55Z</time>
      </trkpt>
      <trkpt lat="43.7414" lon="7.40166">
        <ele>474.421</ele>
        <time>2016-07-29T15:50:58Z</time>
      </trkpt>
      <trkpt lat="43.74136" lon="7.40167">
        <ele>475.473</ele>
        <time>2016-07-29T15:51:02Z</time>
      </trkpt>
      <trkpt lat="43.74131" lon="7.40168">
        <ele>475.187</ele>
        <time>2016-07-29T15:51:09Z</time>
      </trkpt>
      <trkpt lat="43.74127" lon="7.40169">
        <ele>475.082</ele>
        <time>2016-07-29T15:51:13Z</time>
      </trkpt>
      <trkpt lat="43.74122" lon="7.40171">
        <ele>472.765</ele>
        <time>2016-07-29T15:51:17Z</time>
      </trkpt>
      <trkpt lat="43.74117" lon="7.40173">
        <ele>471.697</ele>
        <time>2016-07-29T15:51:22Z</time>
      </trkpt>
      <trkpt lat="43.74117" lon="7.40174">
        <ele>471.479</ele>
        <time>2016-07-29T15:51:24Z</time>
      </trkpt>
      <trkpt lat="43.74111" lon="7.40176">
        <ele>471.394</ele>
        <time>2016-07-29T15:51:27Z</time>
      </trkpt>
      <trkpt lat="43.74107" lon="7.4018">
        <ele>470.281</ele>
        <time>2016-07-29T15:51:34Z</time>
      </trkpt>
      <trkpt lat="43.74102" lon="7.40181">
        <ele>469.789</ele>
        <time>2016-07-29T15:51:38Z</time>
      </trkpt>
      <trkpt lat="43.74098" lon="7.40182">
        <ele>468.899</ele>
        <time>2016-07-29T15:51:41Z</time>
      </trkpt>
      <trkpt lat="43.74093" lon="7.40184">
        <ele>468.232</ele>
        <time>2016-07-29T15:51:45Z</time>
      </trkpt>
      <trkpt lat="43.74088" lon="7.40185">
        <ele>466.681</ele>
        <time>2016-07-29T15:51:49Z</time>
      </trkpt>
      <trkpt lat="43.74084" lon="7.40185">
        <ele>466.259</ele>
        <time>2016-07-29T15:51:52Z</time>
      </trkpt>
      <trkpt lat="43.7408" lon="7.40188">
        <ele>465.572</ele>
        <time>2016-07-29T15:51:55Z</time>
      </trkpt>
      <trkpt lat="43.74076" lon="7.40191">
        <ele>464.838</ele>
        <time>2016-07-29T15:51:59Z</time>
      </trkpt>
      <trkpt lat="43.74073" lon="7.40193">
        <ele>465.396</ele>
        <time>2016-07-29T15:52:04Z</time>
      </trkpt>
      <trkpt lat="43.74068" lon="7.40195">
        <ele>464.922</ele>
        <time>2016-07-29T15:52:06Z</time>
      </trkpt>
      <trkpt lat="43.74062" lon="7.40198">
        <ele>464.641</ele>
        <time>2016-07-29T15:52:10Z</time>
      </trkpt>
      <trkpt lat="43.74057" lon="7.40199">
        <ele>464.195</ele>
        <time>2016-07-29T15:52:13Z</time>
      </trkpt>
      <trkpt lat="43.74051" lon="7.402">
        <ele>463.88</ele>
        <time>2016-07-29T15:52:17Z</time>
      </trkpt>
      <trkpt lat="43.74046" lon="7.40203">
        <ele>464.317</ele>
        <time>2016-07-29T15:52:25Z</time>
      </trkpt>
      <trkpt lat="43.74042" lon="7.40207">
        <ele>463.768</ele>
        <time>2016-07-29T15:52:29Z</time>
      </trkpt>
      <trkpt lat="43.74038" lon="7.4021">
        <ele>463.99</ele>
        <time>2016-07-29T15:52:35Z</time>
      </trkpt>
      <trkpt lat="43.74033" lon="7.40209">
        <ele>463.275</ele>
        <time>2016-07-29T15:52:39Z</time>
      </trkpt>
      <trkpt lat="43.74028" lon="7.40212">
        <ele>461.215</ele>
        <time>2016-07-29T15:52:43Z</time>
      </trkpt>
      <trkpt lat="43.74023" lon="7.40213">
        <ele>461.243</ele>
        <time>2016-07-29T15:52:47Z</time>
      </trkpt>
      <trkpt lat="43.74018" lon="7.40214">
        <ele>462.104</ele>
        <time>2016-07-29T15:52:51Z</time>
      </trkpt>
      <trkpt lat="43.74013" lon="7.40215">
        <ele>461.878</ele>
        <time>2016-07-29T15:52:55Z</time>
      </trkpt>
      <trkpt lat="43.74007" lon="7.40214">
        <ele>461.958</ele>
        <time>2016-07-29T15:52:59Z</time>
      </trkpt>
      <trkpt lat="43.74002" lon="7.40213">
        <ele>460.898</ele>
        <time>2016-07-29T15:53:03Z</time>
      </trkpt>
      <trkpt lat="43.73997" lon="7.40216">
        <ele>460.494</ele>
        <time>2016-07-29T15:53:08Z</time>
      </trkpt>
      <trkpt lat="43.73993" lon="7.40216">
        <ele>460.408</ele>
        <time>2016-07-29T15:53:11Z</time>
      </trkpt>
      <trkpt lat="43.73987" lon="7.40216">
        <ele>460.897</ele>
        <time>2016-07-29T15:53:16Z</time>
      </trkpt>
      <trkpt lat="43.73982" lon="7.40216">
        <ele>461.324</ele>
        <time>2016-07-29T15:53:20Z</time>
      </trkpt>
      <trkpt lat="43.73977" lon="7.40217">
        <ele>461.17</ele>
        <time>2016-07-29T15:53:24Z</time>
      </trkpt>
      <trkpt lat="43.73972" lon="7.40218">
        <ele>460.874</ele>
        <time>2016-07-29T15:53:28Z</time>
      </trkpt>
      <trkpt lat="43.73967" lon="7.40219">
        <ele>461.233</ele>
        <time>2016-07-29T15:53:34Z</time>
      </trkpt>
      <trkpt lat="43.73962" lon="7.40222">
        <ele>461.04</ele>
        <time>2016-07-29T15:53:39Z</time>
      </trkpt>
      <trkpt lat="43.73957" lon="7.40225">
        <ele>461.383</ele>
        <time>2016-07-29T15:53:44Z</time>
      </trkpt>
      <trkpt lat="43.73951" lon="7.40227">
        <ele>463.006</ele>
        <time>2016-07-29T15:53:48Z</time>
      </trkpt>
      <trkpt lat="43.73947" lon="7.4023">
        <ele>462.527</ele>
        <time>2016-07-29T15:53:52Z</time>
      </trkpt>
      <trkpt lat="43.73943" lon="7.40231">
        <ele>462.952</ele>
        <time>2016-07-29T15:53:55Z</time>
      </trkpt>
      <trkpt lat="43.73938" lon="7.40232">
        <ele>463.146</ele>
        <time>2016-07-29T15:53:59Z</time>
      </trkpt>
      <trkpt lat="43.73933" lon="7.40231">
        <ele>462.399</ele>
        <time>2016-07-29T15:54:03Z</time>
      </trkpt>
      <trkpt lat="43.73927" lon="7.40232">
        <ele>463.568</ele>
        <time>2016-07-29T15:54:07Z</time>
      </trkpt>
      <trkpt lat="43.73923" lon="7.40233">
        <ele>464.324</ele>
        <time>2016-07-29T15:54:12Z</time>
      </trkpt>
      <trkpt lat="43.73923" lon="7.40239">
        <ele>464.415</ele>
        <time>2016-07-29T15:54:50Z</time>
      </trkpt>
      <trkpt lat="43.73919" lon="7.40243">
        <ele>466.862</ele>
        <time>2016-07-29T15:54:55Z</time>
      </trkpt>
      <trkpt lat="43.73913" lon="7.40244">
        <ele>466.112</ele>
        <time>2016-07-29T15:54:58Z</time>
      </trkpt>
      <trkpt lat="43.73913" lon="7.40244">
        <ele>466.112</ele>
        <time>2016-07-29T15:54:59Z</time>
      </trkpt>
      <trkpt lat="43.73908" lon="7.40246">
        <ele>467.552</ele>
        <time>2016-07-29T15:55:01Z</time>
      </trkpt>
      <trkpt lat="43.73904" lon="7.40249">
        <ele>468.12</ele>
        <time>2016-07-29T15:55:06Z</time>
      </trkpt>
      <trkpt lat="43.73899" lon="7.40251">
        <ele>466.494</ele>
        <time>2016-07-29T15:55:11Z</time>
      </trkpt>
      <trkpt lat="43.73895" lon="7.40255">
        <ele>467.352</ele>
        <time>2016-07-29T15:55:14Z</time>
      </trkpt>
      <trkpt lat="43.73891" lon="7.4026">
        <ele>467.115</ele>
        <time>2016-07-29T15:55:18Z</time>
      </trkpt>
      <trkpt lat="43.73886" lon="7.40262">
        <ele>466.509</ele>
        <time>2016-07-29T15:55:23Z</time>
      </trkpt>
      <trkpt lat="43.73882" lon="7.40265">
        <ele>466.14</ele>
        <time>2016-07-29T15:55:27Z</time>
      </trkpt>
      <trkpt lat="43.73876" lon="7.40268">
        <ele>465.177</ele>
        <time>2016-07-29T15:55:31Z</time>
      </trkpt>
      <trkpt lat="43.73871" lon="7.40272">
        <ele>464.88</ele>
        <time>2016-07-29T15:55:35Z</time>
      </trkpt>
      <trkpt lat="43.73868" lon="7.40277">
        <ele>463.62</ele>
        <time>2016-07-29T15:55:38Z</time>
      </trkpt>
      <trkpt lat="43.73868" lon="7.40277">
        <ele>463.62</ele>
        <time>2016-07-29T15:55:39Z</time>
      </trkpt>
      <trkpt lat="43.73866" lon="7.40282">
        <ele>463.561</ele>
        <time>2016-07-29T15:55:43Z</time>
      </trkpt>
      <trkpt lat="43.73862" lon="7.40286">
        <ele>463.339</ele>
        <time>2016-07-29T15:55:49Z</time>
      </trkpt>
      <trkpt lat="43.73857" lon="7.40288">
        <ele>463.451</ele>
        <time>2016-07-29T15:55:53Z</time>
      </trkpt>
      <trkpt lat="43.73852" lon="7.40293">
        <ele>463.349</ele>
        <time>2016-07-29T15:55:57Z</time>
      </trkpt>
      <trkpt lat="43.73849" lon="7.40297">
        <ele>463.515</ele>
        <time>2016-07-29T15:56:01Z</time>
      </trkpt>
      <trkpt lat="43.73845" lon="7.40302">
        <ele>461.915</ele>
        <time>2016-07-29T15:56:06Z</time>
      </trkpt>
      <trkpt lat="43.73841" lon="7.40307">
        <ele>461.985</ele>
        <time>2016-07-29T15:56:10Z</time>
      </trkpt>
      <trkpt lat="43.73837" lon="7.40311">
        <ele>460.264</ele>
        <time>2016-07-29T15:56:14Z</time>
      </trkpt>
      <trkpt lat="43.73832" lon="7.40313">
        <ele>459.494</ele>
        <time>2016-07-29T15:56:18Z</time>
      </trkpt>
      <trkpt lat="43.73828" lon="7.40317">
        <ele>458.714</ele>
        <time>2016-07-29T15:56:23Z</time>
      </trkpt>
      <trkpt lat="43.73825" lon="7.40322">
        <ele>458.714</ele>
        <time>2016-07-29T15:56:27Z</time>
      </trkpt>
      <trkpt lat="43.73819" lon="7.40324">
        <ele>458.469</ele>
        <time>2016-07-29T15:56:31Z</time>
      </trkpt>
      <trkpt lat="43.73815" lon="7.40327">
        <ele>457.395</ele>
        <time>2016-07-29T15:56:34Z</time>
      </trkpt>
      <trkpt lat="43.73811" lon="7.40331">
        <ele>455.762</ele>
        <time>2016-07-29T15:56:38Z</time>
      </trkpt>
      <trkpt lat="43.73805" lon="7.40333">
        <ele>453.969</ele>
        <time>2016-07-29T15:56:43Z</time>
      </trkpt>
      <trkpt lat="43.738" lon="7.40337">
        <ele>453.683</ele>
        <time>2016-07-29T15:56:47Z</time>
      </trkpt>
      <trkpt lat="43.73795" lon="7.40342">
        <ele>453.666</ele>
        <time>2016-07-29T15:56:51Z</time>
      </trkpt>
      <trkpt lat="43.7379" lon="7.40344">
        <ele>452.588</ele>
        <time>2016-07-29T15:56:55Z</time>
      </trkpt>
      <trkpt lat="43.73786" lon="7.40347">
        <ele>452.346</ele>
        <time>2016-07-29T15:56:59Z</time>
      </trkpt>
      <trkpt lat="43.73785" lon="7.40348">
        <ele>452.288</ele>
        <time>2016-07-29T15:57:01Z</time>
      </trkpt>
      <trkpt lat="43.7378" lon="7.4035">
        <ele>452.7</ele>
        <time>2016-07-29T15:57:03Z</time>
      </trkpt>
      <trkpt lat="43.73776" lon="7.40355">
        <ele>453.678</ele>
        <time>2016-07-29T15:57:07Z</time>
      </trkpt>
      <trkpt lat="43.73771" lon="7.40358">
        <ele>453.757</ele>
        <time>2016-07-29T15:57:10Z</time>
      </trkpt>
      <trkpt lat="43.73766" lon="7.40359">
        <ele>452.588</ele>
        <time>2016-07-29T15:57:15Z</time>
      </trkpt>
      <trkpt lat="43.73761" lon="7.40363">
        <ele>452.878</ele>
        <time>2016-07-29T15:57:18Z</time>
      </trkpt>
      <trkpt lat="43.73756" lon="7.40366">
        <ele>453.286</ele>
        <time>2016-07-29T15:57:21Z</time>
      </trkpt>
      <trkpt lat="43.73754" lon="7.40372">
        <ele>452.568</ele>
        <time>2016-07-29T15:57:24Z</time>
      </trkpt>
      <trkpt lat="43.73752" lon="7.40378">
        <ele>451.411</ele>
        <time>2016-07-29T15:57:28Z</time>
      </trkpt>
      <trkpt lat="43.73748" lon="7.40383">
        <ele>452.038</ele>
        <time>2016-07-29T15:57:32Z</time>
      </trkpt>
      <trkpt lat="43.73747" lon="7.4039">
        <ele>451.146</ele>
        <time>2016-07-29T15:57:38Z</time>
      </trkpt>
      <trkpt lat="43.73745" lon="7.4039">
        <ele>450.73</ele>
        <time>2016-07-29T15:57:41Z</time>
      </trkpt>
      <trkpt lat="43.73741" lon="7.40388">
        <ele>451.645</ele>
        <time>2016-07-29T15:57:45Z</time>
      </trkpt>
      <trkpt lat="43.73737" lon="7.40392">
        <ele>452.928</ele>
        <time>2016-07-29T15:57:49Z</time>
      </trkpt>
      <trkpt lat="43.73735" lon="7.40398">
        <ele>452.816</ele>
        <time>2016-07-29T15:57:54Z</time>
      </trkpt>
      <trkpt lat="43.7373" lon="7.40397">
        <ele>453.457</ele>
        <time>2016-07-29T15:58:21Z</time>
      </trkpt>
      <trkpt lat="43.73725" lon="7.404">
        <ele>452.566</ele>
        <time>2016-07-29T15:58:25Z</time>
      </trkpt>
      <trkpt lat="43.73723" lon="7.40407">
        <ele>452.097</ele>
        <time>2016-07-29T15:58:34Z</time>
      </trkpt>
      <trkpt lat="43.7372" lon="7.40412">
        <ele>451.139</ele>
        <time>2016-07-29T15:58:40Z</time>
      </trkpt>
      <trkpt lat="43.73716" lon="7.40416">
        <ele>449.757</ele>
        <time>2016-07-29T15:58:47Z</time>
      </trkpt>
      <trkpt lat="43.73712" lon="7.40416">
        <ele>450.183</ele>
        <time>2016-07-29T15:58:51Z</time>
      </trkpt>
      <trkpt lat="43.73707" lon="7.40419">
        <ele>450.177</ele>
        <time>2016-07-29T15:58:56Z</time>
      </trkpt>
      <trkpt lat="43.73703" lon="7.4042">
        <ele>450.755</ele>
        <time>2016-07-29T15:59:04Z</time>
      </trkpt>
      <trkpt lat="43.73702" lon="7.4042">
        <ele>450.991</ele>
        <time>2016-07-29T15:59:06Z</time>
      </trkpt>
      <trkpt lat="43.73698" lon="7.40421">
        <ele>452.248</ele>
        <time>2016-07-29T15:59:10Z</time>
      </trkpt>
      <trkpt lat="43.73694" lon="7.40417">
        <ele>452.724</ele>
        <time>2016-07-29T15:59:20Z</time>
      </trkpt>
      <trkpt lat="43.73689" lon="7.40418">
        <ele>455.499</ele>
        <time>2016-07-29T15:59:39Z</time>
      </trkpt>
      <trkpt lat="43.73684" lon="7.4042">
        <ele>456.739</ele>
        <time>2016-07-29T15:59:44Z</time>
      </trkpt>
      <trkpt lat="43.73683" lon="7.40421">
        <ele>458.062</ele>
        <time>2016-07-29T15:59:46Z</time>
      </trkpt>
      <trkpt lat="43.73679" lon="7.40424">
        <ele>459.79</ele>
        <time>2016-07-29T15:59:58Z</time>
      </trkpt>
      <trkpt lat="43.73674" lon="7.40425">
        <ele>461.066</ele>
        <time>2016-07-29T16:00:04Z</time>
      </trkpt>
      <trkpt lat="43.73669" lon="7.40426">
        <ele>460.998</ele>
        <time>2016-07-29T16:00:08Z</time>
      </trkpt>
      <trkpt lat="43.73665" lon="7.4043">
        <ele>462.097</ele>
        <time>2016-07-29T16:00:13Z</time>
      </trkpt>
      <trkpt lat="43.7366" lon="7.40434">
        <ele>462.092</ele>
        <time>2016-07-29T16:00:16Z</time>
      </trkpt>
      <trkpt lat="43.73655" lon="7.40436">
        <ele>463.479</ele>
        <time>2016-07-29T16:00:20Z</time>
      </trkpt>
      <trkpt lat="43.73651" lon="7.4044">
        <ele>465.012</ele>
        <time>2016-07-29T16:00:27Z</time>
      </trkpt>
      <trkpt lat="43.73648" lon="7.40445">
        <ele>466.124</ele>
        <time>2016-07-29T16:00:31Z</time>
      </trkpt>
      <trkpt lat="43.73645" lon="7.40451">
        <ele>465.984</ele>
        <time>2016-07-29T16:00:35Z</time>
      </trkpt>
      <trkpt lat="43.73641" lon="7.40456">
        <ele>465.654</ele>
        <time>2016-07-29T16:00:39Z</time>
      </trkpt>
      <trkpt lat="43.73638" lon="7.40462">
        <ele>465.661</ele>
        <time>2016-07-29T16:00:44Z</time>
      </trkpt>
      <trkpt lat="43.73633" lon="7.40465">
        <ele>465.309</ele>
        <time>2016-07-29T16:00:48Z</time>
      </trkpt>
      <trkpt lat="43.7363" lon="7.4047">
        <ele>465.302</ele>
        <time>2016-07-29T16:00:52Z</time>
      </trkpt>
      <trkpt lat="43.73627" lon="7.40476">
        <ele>465.091</ele>
        <time>2016-07-29T16:00:57Z</time>
      </trkpt>
      <trkpt lat="43.73624" lon="7.40481">
        <ele>465.851</ele>
        <time>2016-07-29T16:01:01Z</time>
      </trkpt>
      <trkpt lat="43.73622" lon="7.40487">
        <ele>466.525</ele>
        <time>2016-07-29T16:01:09Z</time>
      </trkpt>
      <trkpt lat="43.73617" lon="7.40489">
        <ele>468.233</ele>
        <time>2016-07-29T16:01:34Z</time>
      </trkpt>
      <trkpt lat="43.73613" lon="7.40491">
        <ele>469.726</ele>
        <time>2016-07-29T16:01:39Z</time>
      </trkpt>
      <trkpt lat="43.73608" lon="7.40492">
        <ele>468.566</ele>
        <time>2016-07-29T16:01:42Z</time>
      </trkpt>
      <trkpt lat="43.73605" lon="7.40496">
        <ele>468.362</ele>
        <time>2016-07-29T16:01:44Z</time>
      </trkpt>
      <trkpt lat="43.736" lon="7.40499">
        <ele>467.328</ele>
        <time>2016-07-29T16:01:48Z</time>
      </trkpt>
      <trkpt lat="43.73594" lon="7.40502">
        <ele>467.454</ele>
        <time>2016-07-29T16:01:51Z</time>
      </trkpt>
      <trkpt lat="43.73589" lon="7.40504">
        <ele>467.451</ele>
        <time>2016-07-29T16:01:55Z</time>
      </trkpt>
      <trkpt lat="43.73585" lon="7.40506">
        <ele>466.94</ele>
        <time>2016-07-29T16:01:59Z</time>
      </trkpt>
      <trkpt lat="43.73581" lon="7.40501">
        <ele>466.971</ele>
        <time>2016-07-29T16:02:03Z</time>
      </trkpt>
      <trkpt lat="43.73577" lon="7.40505">
        <ele>466.056</ele>
        <time>2016-07-29T16:02:08Z</time>
      </trkpt>
      <trkpt lat="43.73573" lon="7.40511">
        <ele>465.771</ele>
        <time>2016-07-29T16:02:13Z</time>
      </trkpt>
      <trkpt lat="43.73569" lon="7.40514">
        <ele>464.647</ele>
        <time>2016-07-29T16:02:17Z</time>
      </trkpt>
      <trkpt lat="43.73566" lon="7.40513">
        <ele>464.202</ele>
        <time>2016-07-29T16:02:35Z</time>
      </trkpt>
      <trkpt lat="43.73562" lon="7.40512">
        <ele>463.379</ele>
        <time>2016-07-29T16:02:41Z</time>
      </trkpt>
      <trkpt lat="43.73557" lon="7.40508">
        <ele>462.924</ele>
        <time>2016-07-29T16:02:46Z</time>
      </trkpt>
      <trkpt lat="43.73552" lon="7.40508">
        <ele>463.917</ele>
        <time>2016-07-29T16:02:53Z</time>
      </trkpt>
      <trkpt lat="43.73548" lon="7.40506">
        <ele>463.497</ele>
        <time>2016-07-29T16:02:58Z</time>
      </trkpt>
      <trkpt lat="43.73542" lon="7.40507">
        <ele>463.481</ele>
        <time>2016-07-29T16:03:02Z</time>
      </trkpt>
      <trkpt lat="43.73537" lon="7.40507">
        <ele>462.773</ele>
        <time>2016-07-29T16:03:07Z</time>
      </trkpt>
      <trkpt lat="43.73533" lon="7.40505">
        <ele>462.948</ele>
        <time>2016-07-29T16:03:11Z</time>
      </trkpt>
      <trkpt lat="43.7353" lon="7.40503">
        <ele>463.28</ele>
        <time>2016-07-29T16:03:15Z</time>
      </trkpt>
      <trkpt lat="43.73529" lon="7.40503">
        <ele>462.838</ele>
        <time>2016-07-29T16:03:16Z</time>
      </trkpt>
      <trkpt lat="43.73525" lon="7.40504">
        <ele>463.309</ele>
        <time>2016-07-29T16:03:19Z</time>
      </trkpt>
      <trkpt lat="43.73519" lon="7.40504">
        <ele>462.795</ele>
        <time>2016-07-29T16:03:45Z</time>
      </trkpt>
      <trkpt lat="43.73515" lon="7.40507">
        <ele>462.806</ele>
        <time>2016-07-29T16:03:48Z</time>
      </trkpt>
      <trkpt lat="43.73509" lon="7.40506">
        <ele>462.407</ele>
        <time>2016-07-29T16:03:52Z</time>
      </trkpt>
      <trkpt lat="43.73507" lon="7.40505">
        <ele>461.157</ele>
        <time>2016-07-29T16:03:56Z</time>
      </trkpt>
      <trkpt lat="43.73502" lon="7.40504">
        <ele>460.919</ele>
        <time>2016-07-29T16:03:59Z</time>
      </trkpt>
      <trkpt lat="43.73497" lon="7.40505">
        <ele>460.822</ele>
        <time>2016-07-29T16:04:12Z</time>
      </trkpt>
      <trkpt lat="43.73492" lon="7.40506">
        <ele>460.825</ele>
        <time>2016-07-29T16:04:16Z</time>
      </trkpt>
      <trkpt lat="43.73487" lon="7.40507">
        <ele>460.443</ele>
        <time>2016-07-29T16:04:19Z</time>
      </trkpt>
      <trkpt lat="43.73482" lon="7.40507">
        <ele>460.362</ele>
        <time>2016-07-29T16:04:23Z</time>
      </trkpt>
      <trkpt lat="43.73477" lon="7.40506">
        <ele>459.458</ele>
        <time>2016-07-29T16:04:29Z</time>
      </trkpt>
      <trkpt lat="43.73473" lon="7.40505">
        <ele>458.836</ele>
        <time>2016-07-29T16:04:35Z</time>
      </trkpt>
      <trkpt lat="43.73468" lon="7.40501">
        <ele>457.829</ele>
        <time>2016-07-29T16:04:40Z</time>
      </trkpt>
      <trkpt lat="43.73462" lon="7.40501">
        <ele>458.334</ele>
        <time>2016-07-29T16:04:45Z</time>
      </trkpt>
      <trkpt lat="43.73456" lon="7.40501">
        <ele>458.729</ele>
        <time>2016-07-29T16:04:51Z</time>
      </trkpt>
      <trkpt lat="43.73451" lon="7.40504">
        <ele>459.09</ele>
        <time>2016-07-29T16:04:54Z</time>
      </trkpt>
      <trkpt lat="43.73446" lon="7.40507">
        <ele>459.451</ele>
        <time>2016-07-29T16:04:58Z</time>
      </trkpt>
      <trkpt lat="43.73441" lon="7.40507">
        <ele>458.823</ele>
        <time>2016-07-29T16:05:02Z</time>
      </trkpt>
      <trkpt lat="43.73437" lon="7.40506">
        <ele>458.023</ele>
        <time>2016-07-29T16:05:05Z</time>
      </trkpt>
      <trkpt lat="43.73432" lon="7.40505">
        <ele>457.22</ele>
        <time>2016-07-29T16:05:26Z</time>
      </trkpt>
      <trkpt lat="43.73427" lon="7.40506">
        <ele>457.046</ele>
        <time>2016-07-29T16:05:30Z</time>
      </trkpt>
      <trkpt lat="43.73422" lon="7.40505">
        <ele>456.159</ele>
        <time>2016-07-29T16:05:35Z</time>
      </trkpt>
      <trkpt lat="43.73417" lon="7.40506">
        <ele>455.951</ele>
        <time>2016-07-29T16:05:40Z</time>
      </trkpt>
      <trkpt lat="43.73412" lon="7.40508">
        <ele>456.962</ele>
        <time>2016-07-29T16:06:05Z</time>
      </trkpt>
      <trkpt lat="43.73406" lon="7.40508">
        <ele>458.309</ele>
        <time>2016-07-29T16:06:09Z</time>
      </trkpt>
      <trkpt lat="43.73401" lon="7.40507">
        <ele>459.569</ele>
        <time>2016-07-29T16:06:12Z</time>
      </trkpt>
      <trkpt lat="43.73397" lon="7.40508">
        <ele>458.801</ele>
        <time>2016-07-29T16:06:17Z</time>
      </trkpt>
      <trkpt lat="43.73392" lon="7.40509">
        <ele>460.058</ele>
        <time>2016-07-29T16:06:23Z</time>
      </trkpt>
      <trkpt lat="43.73387" lon="7.40513">
        <ele>459.565</ele>
        <time>2016-07-29T16:06:28Z</time>
      </trkpt>
      <trkpt lat="43.73381" lon="7.40513">
        <ele>458.973</ele>
        <time>2016-07-29T16:06:31Z</time>
      </trkpt>
      <trkpt lat="43.73376" lon="7.40514">
        <ele>458.059</ele>
        <time>2016-07-29T16:06:36Z</time>
      </trkpt>
      <trkpt lat="43.73371" lon="7.40516">
        <ele>455.299</ele>
        <time>2016-07-29T16:07:01Z</time>
      </trkpt>
      <trkpt lat="43.73367" lon="7.40519">
        <ele>454.197</ele>
        <time>2016-07-29T16:07:05Z</time>
      </trkpt>
      <trkpt lat="43.73362" lon="7.40521">
        <ele>454.095</ele>
        <time>2016-07-29T16:07:09Z</time>
      </trkpt>
      <trkpt lat="43.73357" lon="7.40518">
        <ele>454.103</ele>
        <time>2016-07-29T16:07:13Z</time>
      </trkpt>
      <trkpt lat="43.73352" lon="7.40514">
        <ele>452.814</ele>
        <time>2016-07-29T16:07:18Z</time>
      </trkpt>
      <trkpt lat="43.73347" lon="7.40512">
        <ele>451.847</ele>
        <time>2016-07-29T16:07:23Z</time>
      </trkpt>
      <trkpt lat="43.73343" lon="7.40509">
        <ele>452.459</ele>
        <time>2016-07-29T16:07:27Z</time>
      </trkpt>
      <trkpt lat="43.73338" lon="7.40508">
        <ele>452.895</ele>
        <time>2016-07-29T16:07:31Z</time>
      </trkpt>
      <trkpt lat="43.73335" lon="7.40504">
        <ele>452.204</ele>
        <time>2016-07-29T16:07:35Z</time>
      </trkpt>
      <trkpt lat="43.73331" lon="7.40499">
        <ele>451.436</ele>
        <time>2016-07-29T16:07:40Z</time>
      </trkpt>
      <trkpt lat="43.73328" lon="7.405">
        <ele>451.56</ele>
        <time>2016-07-29T16:07:43Z</time>
      </trkpt>
      <trkpt lat="43.73323" lon="7.40503">
        <ele>452.476</ele>
        <time>2016-07-29T16:07:48Z</time>
      </trkpt>
      <trkpt lat="43.73318" lon="7.40504">
        <ele>452.867</ele>
        <time>2016-07-29T16:07:51Z</time>
      </trkpt>
      <trkpt lat="43.73314" lon="7.40509">
        <ele>454.484</ele>
        <time>2016-07-29T16:07:57Z</time>
      </trkpt>
      <trkpt lat="43.7331" lon="7.40513">
        <ele>454.429</ele>
        <time>2016-07-29T16:08:00Z</time>
      </trkpt>
      <trkpt lat="43.73305" lon="7.40516">
        <ele>454.876</ele>
        <time>2016-07-29T16:08:04Z</time>
      </trkpt>
      <trkpt lat="43.733" lon="7.40515">
        <ele>454.505</ele>
        <time>2016-07-29T16:08:07Z</time>
      </trkpt>
      <trkpt lat="43.73295" lon="7.40518">
        <ele>453.624</ele>
        <time>2016-07-29T16:08:11Z</time>
      </trkpt>
      <trkpt lat="43.7329" lon="7.4052">
        <ele>451.854</ele>
        <time>2016-07-29T16:08:14Z</time>
      </trkpt>
      <trkpt lat="43.73286" lon="7.40519">
        <ele>451.402</ele>
        <time>2016-07-29T16:08:17Z</time>
      </trkpt>
      <trkpt lat="43.73281" lon="7.40517">
        <ele>451.855</ele>
        <time>2016-07-29T16:08:20Z</time>
      </trkpt>
      <trkpt lat="43.73277" lon="7.40517">
        <ele>450.606</ele>
        <time>2016-07-29T16:08:23Z</time>
      </trkpt>
      <trkpt lat="43.73272" lon="7.40517">
        <ele>450.251</ele>
        <time>2016-07-29T16:08:27Z</time>
      </trkpt>
      <trkpt lat="43.73268" lon="7.40514">
        <ele>448.64</ele>
        <time>2016-07-29T16:08:31Z</time>
      </trkpt>
      <trkpt lat="43.73263" lon="7.40512">
        <ele>448.324</ele>
        <time>2016-07-29T16:08:34Z</time>
      </trkpt>
      <trkpt lat="43.73259" lon="7.40516">
        <ele>444.662</ele>
        <time>2016-07-29T16:09:06Z</time>
      </trkpt>
      <trkpt lat="43.73254" lon="7.40513">
        <ele>445.262</ele>
        <time>2016-07-29T16:09:08Z</time>
      </trkpt>
      <trkpt lat="43.7325" lon="7.40512">
        <ele>441.339</ele>
        <time>2016-07-29T16:09:14Z</time>
      </trkpt>
      <trkpt lat="43.73245" lon="7.40509">
        <ele>440.849</ele>
        <time>2016-07-29T16:09:19Z</time>
      </trkpt>
      <trkpt lat="43.73241" lon="7.40508">
        <ele>437.956</ele>
        <time>2016-07-29T16:09:28Z</time>
      </trkpt>
      <trkpt lat="43.73236" lon="7.40507">
        <ele>436.575</ele>
        <time>2016-07-29T16:09:31Z</time>
      </trkpt>
      <trkpt lat="43.73236" lon="7.40513">
        <ele>433.533</ele>
        <time>2016-07-29T16:09:46Z</time>
      </trkpt>
      <trkpt lat="43.73233" lon="7.40507">
        <ele>434.057</ele>
        <time>2016-07-29T16:10:28Z</time>
      </trkpt>
      <trkpt lat="43.7323" lon="7.40501">
        <ele>435.252</ele>
        <time>2016-07-29T16:10:34Z</time>
      </trkpt>
      <trkpt lat="43.73227" lon="7.40495">
        <ele>435.729</ele>
        <time>2016-07-29T16:10:40Z</time>
      </trkpt>
      <trkpt lat="43.73225" lon="7.40489">
        <ele>435.384</ele>
        <time>2016-07-29T16:10:49Z</time>
      </trkpt>
      <trkpt lat="43.73225" lon="7.40489">
        <ele>435.465</ele>
        <time>2016-07-29T16:10:56Z</time>
      </trkpt>
      <trkpt lat="43.73227" lon="7.40494">
        <ele>438.054</ele>
        <time>2016-07-29T16:11:25Z</time>
      </trkpt>
      <trkpt lat="43.73231" lon="7.40499">
        <ele>437.513</ele>
        <time>2016-07-29T16:11:44Z</time>
      </trkpt>
      <trkpt lat="43.73233" lon="7.40502">
        <ele>437.879</ele>
        <time>2016-07-29T16:12:08Z</time>
      </trkpt>
      <trkpt lat="43.73236" lon="7.40508">
        <ele>435.099</ele>
        <time>2016-07-29T16:12:13Z</time>
      </trkpt>
      <trkpt lat="43.73239" lon="7.40513">
        <ele>433.048</ele>
        <time>2016-07-29T16:12:18Z</time>
      </trkpt>
      <trkpt lat="43.73243" lon="7.40518">
        <ele>431.986</ele>
        <time>2016-07-29T16:12:23Z</time>
      </trkpt>
      <trkpt lat="43.73238" lon="7.40521">
        <ele>430.85</ele>
        <time>2016-07-29T16:12:33Z</time>
      </trkpt>
      <trkpt lat="43.73234" lon="7.40524">
        <ele>429.53</ele>
        <time>2016-07-29T16:12:44Z</time>
      </trkpt>
      <trkpt lat="43.73234" lon="7.40524">
        <ele>429.12</ele>
        <time>2016-07-29T16:12:48Z</time>
      </trkpt>
      <trkpt lat="43.7323" lon="7.40521">
        <ele>428.347</ele>
        <time>2016-07-29T16:12:54Z</time>
      </trkpt>
      <trkpt lat="43.73225" lon="7.40517">
        <ele>426.446</ele>
        <time>2016-07-29T16:13:02Z</time>
      </trkpt>
      <trkpt lat="43.73221" lon="7.4052">
        <ele>424.072</ele>
        <time>2016-07-29T16:13:18Z</time>
      </trkpt>
      <trkpt lat="43.73215" lon="7.4052">
        <ele>421.619</ele>
        <time>2016-07-29T16:13:26Z</time>
      </trkpt>
      <trkpt lat="43.73211" lon="7.40518">
        <ele>421.199</ele>
        <time>2016-07-29T16:13:34Z</time>
      </trkpt>
      <trkpt lat="43.73207" lon="7.40515">
        <ele>420.004</ele>
        <time>2016-07-29T16:13:50Z</time>
      </trkpt>
      <trkpt lat="43.73209" lon="7.40521">
        <ele>419.69</ele>
        <time>2016-07-29T16:13:57Z</time>
      </trkpt>
      <trkpt lat="43.73212" lon="7.40527">
        <ele>417.766</ele>
        <time>2016-07-29T16:14:04Z</time>
      </trkpt>
      <trkpt lat="43.73208" lon="7.40525">
        <ele>416.478</ele>
        <time>2016-07-29T16:14:31Z</time>
      </trkpt>
      <trkpt lat="43.73203" lon="7.40528">
        <ele>415.295</ele>
        <time>2016-07-29T16:16:22Z</time>
      </trkpt>
      <trkpt lat="43.732" lon="7.40524">
        <ele>417.138</ele>
        <time>2016-07-29T16:16:36Z</time>
      </trkpt>
      <trkpt lat="43.73196" lon="7.4052">
        <ele>417.033</ele>
        <time>2016-07-29T16:17:00Z</time>
      </trkpt>
      <trkpt lat="43.73193" lon="7.40515">
        <ele>414.876</ele>
        <time>2016-07-29T16:17:05Z</time>
      </trkpt>
      <trkpt lat="43.73189" lon="7.40511">
        <ele>415.165</ele>
        <time>2016-07-29T16:17:11Z</time>
      </trkpt>
      <trkpt lat="43.7319" lon="7.4051">
        <ele>415.518</ele>
        <time>2016-07-29T16:17:16Z</time>
      </trkpt>
      <trkpt lat="43.73185" lon="7.40506">
        <ele>414.966</ele>
        <time>2016-07-29T16:17:19Z</time>
      </trkpt>
      <trkpt lat="43.73182" lon="7.40501">
        <ele>415.248</ele>
        <time>2016-07-29T16:17:25Z</time>
      </trkpt>
      <trkpt lat="43.73177" lon="7.405">
        <ele>414.51</ele>
        <time>2016-07-29T16:17:33Z</time>
      </trkpt>
      <trkpt lat="43.73173" lon="7.40495">
        <ele>411.048</ele>
        <time>2016-07-29T16:17:40Z</time>
      </trkpt>
      <trkpt lat="43.73172" lon="7.40495">
        <ele>413.241</ele>
        <time>2016-07-29T16:19:09Z</time>
      </trkpt>
      <trkpt lat="43.73176" lon="7.40497">
        <ele>409.229</ele>
        <time>2016-07-29T16:19:22Z</time>
      </trkpt>
      <trkpt lat="43.73177" lon="7.40503">
        <ele>406.501</ele>
        <time>2016-07-29T16:19:33Z</time>
      </trkpt>
      <trkpt lat="43.73174" lon="7.40505">
        <ele>407.281</ele>
        <time>2016-07-29T16:19:49Z</time>
      </trkpt>
      <trkpt lat="43.73169" lon="7.40501">
        <ele>405.176</ele>
        <time>2016-07-29T16:19:55Z</time>
      </trkpt>
      <trkpt lat="43.73167" lon="7.40507">
        <ele>402.79</ele>
        <time>2016-07-29T16:20:06Z</time>
      </trkpt>
      <trkpt lat="43.73163" lon="7.40508">
        <ele>400.032</ele>
        <time>2016-07-29T16:20:30Z</time>
      </trkpt>
      <trkpt lat="43.73158" lon="7.40508">
        <ele>399.074</ele>
        <time>2016-07-29T16:20:35Z</time>
      </trkpt>
      <trkpt lat="43.73155" lon="7.40506">
        <ele>398.861</ele>
        <time>2016-07-29T16:20:40Z</time>
      </trkpt>
      <trkpt lat="43.7315" lon="7.40504">
        <ele>397.598</ele>
        <time>2016-07-29T16:20:48Z</time>
      </trkpt>
      <trkpt lat="43.73149" lon="7.40503">
        <ele>396.673</ele>
        <time>2016-07-29T16:21:20Z</time>
      </trkpt>
      <trkpt lat="43.73154" lon="7.40506">
        <ele>395.43</ele>
        <time>2016-07-29T16:22:36Z</time>
      </trkpt>
      <trkpt lat="43.73159" lon="7.40507">
        <ele>396.768</ele>
        <time>2016-07-29T16:22:43Z</time>
      </trkpt>
      <trkpt lat="43.73157" lon="7.40501">
        <ele>394.297</ele>
        <time>2016-07-29T16:22:51Z</time>
      </trkpt>
      <trkpt lat="43.73153" lon="7.40499">
        <ele>390.646</ele>
        <time>2016-07-29T16:22:56Z</time>
      </trkpt>
      <trkpt lat="43.73149" lon="7.40496">
        <ele>389.179</ele>
        <time>2016-07-29T16:23:01Z</time>
      </trkpt>
      <trkpt lat="43.73144" lon="7.40498">
        <ele>387.214</ele>
        <time>2016-07-29T16:23:12Z</time>
      </trkpt>
      <trkpt lat="43.73138" lon="7.40498">
        <ele>386.174</ele>
        <time>2016-07-29T16:23:17Z</time>
      </trkpt>
      <trkpt lat="43.73133" lon="7.40495">
        <ele>385.307</ele>
        <time>2016-07-29T16:23:22Z</time>
      </trkpt>
      <trkpt lat="43.73128" lon="7.40493">
        <ele>383.644</ele>
        <time>2016-07-29T16:23:26Z</time>
      </trkpt>
      <trkpt lat="43.73124" lon="7.4049">
        <ele>381.515</ele>
        <time>2016-07-29T16:25:21Z</time>
      </trkpt>
      <trkpt lat="43.73126" lon="7.40484">
        <ele>381.112</ele>
        <time>2016-07-29T16:25:32Z</time>
      </trkpt>
      <trkpt lat="43.73121" lon="7.40481">
        <ele>379.794</ele>
        <time>2016-07-29T16:25:40Z</time>
      </trkpt>
      <trkpt lat="43.73117" lon="7.40477">
        <ele>376.542</ele>
        <time>2016-07-29T16:25:45Z</time>
      </trkpt>
      <trkpt lat="43.73116" lon="7.40483">
        <ele>376.85</ele>
        <time>2016-07-29T16:26:15Z</time>
      </trkpt>
      <trkpt lat="43.73111" lon="7.40479">
        <ele>374.443</ele>
        <time>2016-07-29T16:26:24Z</time>
      </trkpt>
      <trkpt lat="43.73107" lon="7.40475">
        <ele>374.266</ele>
        <time>2016-07-29T16:26:28Z</time>
      </trkpt>
      <trkpt lat="43.73101" lon="7.40475">
        <ele>373.645</ele>
        <time>2016-07-29T16:26:34Z</time>
      </trkpt>
      <trkpt lat="43.73099" lon="7.40468">
        <ele>370.856</ele>
        <time>2016-07-29T16:26:40Z</time>
      </trkpt>
      <trkpt lat="43.73095" lon="7.40464">
        <ele>369.974</ele>
        <time>2016-07-29T16:26:45Z</time>
      </trkpt>
      <trkpt lat="43.7309" lon="7.40462">
        <ele>369.371</ele>
        <time>2016-07-29T16:26:50Z</time>
      </trkpt>
      <trkpt lat="43.73086" lon="7.4046">
        <ele>369.63</ele>
        <time>2016-07-29T16:26:55Z</time>
      </trkpt>
      <trkpt lat="43.73083" lon="7.4046">
        <ele>370.059</ele>
        <time>2016-07-29T16:26:59Z</time>
      </trkpt>
      <trkpt lat="43.73079" lon="7.40457">
        <ele>370.141</ele>
        <time>2016-07-29T16:27:04Z</time>
      </trkpt>
      <trkpt lat="43.73075" lon="7.40451">
        <ele>368.739</ele>
        <time>2016-07-29T16:27:26Z</time>
      </trkpt>
      <trkpt lat="43.73071" lon="7.40453">
        <ele>369.014</ele>
        <time>2016-07-29T16:27:30Z</time>
      </trkpt>
      <trkpt lat="43.73067" lon="7.40457">
        <ele>368.237</ele>
        <time>2016-07-29T16:27:39Z</time>
      </trkpt>
      <trkpt lat="43.73063" lon="7.4046">
        <ele>369.116</ele>
        <time>2016-07-29T16:27:53Z</time>
      </trkpt>
      <trkpt lat="43.73059" lon="7.40463">
        <ele>368.466</ele>
        <time>2016-07-29T16:28:16Z</time>
      </trkpt>
      <trkpt lat="43.73054" lon="7.40466">
        <ele>368.082</ele>
        <time>2016-07-29T16:28:22Z</time>
      </trkpt>
      <trkpt lat="43.7305" lon="7.40465">
        <ele>366.002</ele>
        <time>2016-07-29T16:28:33Z</time>
      </trkpt>
      <trkpt lat="43.73044" lon="7.40466">
        <ele>374.164</ele>
        <time>2016-07-29T16:29:30Z</time>
      </trkpt>
      <trkpt lat="43.73039" lon="7.40467">
        <ele>373.454</ele>
        <time>2016-07-29T16:29:33Z</time>
      </trkpt>
      <trkpt lat="43.73036" lon="7.40471">
        <ele>371.626</ele>
        <time>2016-07-29T16:29:51Z</time>
      </trkpt>
      <trkpt lat="43.73035" lon="7.40469">
        <ele>369.281</ele>
        <time>2016-07-29T16:30:06Z</time>
      </trkpt>
      <trkpt lat="43.7303" lon="7.40465">
        <ele>364.021</ele>
        <time>2016-07-29T16:30:26Z</time>
      </trkpt>
      <trkpt lat="43.73026" lon="7.40462">
        <ele>359.54</ele>
        <time>2016-07-29T16:30:33Z</time>
      </trkpt>
      <trkpt lat="43.73025" lon="7.4046">
        <ele>360.276</ele>
        <time>2016-07-29T16:30:46Z</time>
      </trkpt>
      <trkpt lat="43.73021" lon="7.40457">
        <ele>359.063</ele>
        <time>2016-07-29T16:30:51Z</time>
      </trkpt>
      <trkpt lat="43.73017" lon="7.40453">
        <ele>357.795</ele>
        <time>2016-07-29T16:30:56Z</time>
      </trkpt>
      <trkpt lat="43.73015" lon="7.40447">
        <ele>355.829</ele>
        <time>2016-07-29T16:31:01Z</time>
      </trkpt>
      <trkpt lat="43.73011" lon="7.40447">
        <ele>353.35</ele>
        <time>2016-07-29T16:31:10Z</time>
      </trkpt>
      <trkpt lat="43.73006" lon="7.40444">
        <ele>352.46</ele>
        <time>2016-07-29T16:31:14Z</time>
      </trkpt>
      <trkpt lat="43.73003" lon="7.40444">
        <ele>351.367</ele>
        <time>2016-07-29T16:31:59Z</time>
      </trkpt>
      <trkpt lat="43.73001" lon="7.40437">
        <ele>355.559</ele>
        <time>2016-07-29T16:32:37Z</time>
      </trkpt>
      <trkpt lat="43.73001" lon="7.40436">
        <ele>355.275</ele>
        <time>2016-07-29T16:32:39Z</time>
      </trkpt>
      <trkpt lat="43.73001" lon="7.40436">
        <ele>355.552</ele>
        <time>2016-07-29T16:32:40Z</time>
      </trkpt>
      <trkpt lat="43.73006" lon="7.40439">
        <ele>352.988</ele>
        <time>2016-07-29T16:32:48Z</time>
      </trkpt>
      <trkpt lat="43.7301" lon="7.40435">
        <ele>354.454</ele>
        <time>2016-07-29T16:32:57Z</time>
      </trkpt>
      <trkpt lat="43.73005" lon="7.40431">
        <ele>355.649</ele>
        <time>2016-07-29T16:33:06Z</time>
      </trkpt>
      <trkpt lat="43.73002" lon="7.40426">
        <ele>354.981</ele>
        <time>2016-07-29T16:33:13Z</time>
      </trkpt>
      <trkpt lat="43.73" lon="7.4042">
        <ele>356.362</ele>
        <time>2016-07-29T16:33:18Z</time>
      </trkpt>
      <trkpt lat="43.72999" lon="7.40419">
        <ele>356.766</ele>
        <time>2016-07-29T16:33:20Z</time>
      </trkpt>
      <trkpt lat="43.72994" lon="7.40418">
        <ele>357.477</ele>
        <time>2016-07-29T16:33:23Z</time>
      </trkpt>
      <trkpt lat="43.72991" lon="7.40411">
        <ele>359.065</ele>
        <time>2016-07-29T16:33:29Z</time>
      </trkpt>
      <trkpt lat="43.72989" lon="7.40405">
        <ele>360.043</ele>
        <time>2016-07-29T16:33:32Z</time>
      </trkpt>
      <trkpt lat="43.72986" lon="7.404">
        <ele>360.822</ele>
        <time>2016-07-29T16:33:36Z</time>
      </trkpt>
      <trkpt lat="43.72983" lon="7.40395">
        <ele>361.878</ele>
        <time>2016-07-29T16:33:41Z</time>
      </trkpt>
      <trkpt lat="43.72977" lon="7.40393">
        <ele>362.368</ele>
        <time>2016-07-29T16:33:48Z</time>
      </trkpt>
      <trkpt lat="43.72973" lon="7.4039">
        <ele>362.334</ele>
        <time>2016-07-29T16:33:54Z</time>
      </trkpt>
      <trkpt lat="43.7297" lon="7.40384">
        <ele>364.108</ele>
        <time>2016-07-29T16:34:03Z</time>
      </trkpt>
      <trkpt lat="43.72967" lon="7.40379">
        <ele>364.37</ele>
        <time>2016-07-29T16:34:10Z</time>
      </trkpt>
      <trkpt lat="43.72963" lon="7.40379">
        <ele>370.924</ele>
        <time>2016-07-29T16:34:44Z</time>
      </trkpt>
      <trkpt lat="43.72959" lon="7.40375">
        <ele>370.287</ele>
        <time>2016-07-29T16:34:49Z</time>
      </trkpt>
      <trkpt lat="43.72955" lon="7.40371">
        <ele>373.964</ele>
        <time>2016-07-29T16:34:54Z</time>
      </trkpt>
      <trkpt lat="43.7295" lon="7.40371">
        <ele>379.231</ele>
        <time>2016-07-29T16:35:00Z</time>
      </trkpt>
      <trkpt lat="43.72947" lon="7.40366">
        <ele>381.833</ele>
        <time>2016-07-29T16:35:05Z</time>
      </trkpt>
      <trkpt lat="43.72943" lon="7.40361">
        <ele>380.933</ele>
        <time>2016-07-29T16:35:11Z</time>
      </trkpt>
      <trkpt lat="43.72939" lon="7.40358">
        <ele>381.221</ele>
        <time>2016-07-29T16:35:17Z</time>
      </trkpt>
      <trkpt lat="43.72935" lon="7.40355">
        <ele>384.237</ele>
        <time>2016-07-29T16:35:27Z</time>
      </trkpt>
      <trkpt lat="43.72931" lon="7.40352">
        <ele>385.207</ele>
        <time>2016-07-29T16:35:34Z</time>
      </trkpt>
      <trkpt lat="43.72928" lon="7.40347">
        <ele>388.715</ele>
        <time>2016-07-29T16:35:46Z</time>
      </trkpt>
      <trkpt lat="43.72925" lon="7.40341">
        <ele>387.654</ele>
        <time>2016-07-29T16:35:56Z</time>
      </trkpt>
      <trkpt lat="43.72919" lon="7.4034">
        <ele>386.307</ele>
        <time>2016-07-29T16:36:02Z</time>
      </trkpt>
      <trkpt lat="43.72919" lon="7.40341">
        <ele>385.343</ele>
        <time>2016-07-29T16:36:15Z</time>
      </trkpt>
      <trkpt lat="43.72919" lon="7.40344">
        <ele>387.586</ele>
        <time>2016-07-29T16:36:55Z</time>
      </trkpt>
      <trkpt lat="43.72914" lon="7.40346">
        <ele>387.385</ele>
        <time>2016-07-29T16:37:04Z</time>
      </trkpt>
      <trkpt lat="43.72909" lon="7.40347">
        <ele>387.272</ele>
        <time>2016-07-29T16:37:10Z</time>
      </trkpt>
      <trkpt lat="43.72905" lon="7.40348">
        <ele>388.762</ele>
        <time>2016-07-29T16:37:30Z</time>
      </trkpt>
      <trkpt lat="43.729" lon="7.4035">
        <ele>389.254</ele>
        <time>2016-07-29T16:37:35Z</time>
      </trkpt>
      <trkpt lat="43.72895" lon="7.40351">
        <ele>386.253</ele>
        <time>2016-07-29T16:37:53Z</time>
      </trkpt>
      <trkpt lat="43.72891" lon="7.40352">
        <ele>384.514</ele>
        <time>2016-07-29T16:37:58Z</time>
      </trkpt>
      <trkpt lat="43.72886" lon="7.40353">
        <ele>384.42</ele>
        <time>2016-07-29T16:38:04Z</time>
      </trkpt>
      <trkpt lat="43.72881" lon="7.40351">
        <ele>385.478</ele>
        <time>2016-07-29T16:38:28Z</time>
      </trkpt>
      <trkpt lat="43.72881" lon="7.40349">
        <ele>386.405</ele>
        <time>2016-07-29T16:39:09Z</time>
      </trkpt>
      <trkpt lat="43.72882" lon="7.40349">
        <ele>388.211</ele>
        <time>2016-07-29T16:39:49Z</time>
      </trkpt>
      <trkpt lat="43.72878" lon="7.40346">
        <ele>385.911</ele>
        <time>2016-07-29T16:40:03Z</time>
      </trkpt>
      <trkpt lat="43.72874" lon="7.40341">
        <ele>386.68</ele>
        <time>2016-07-29T16:40:09Z</time>
      </trkpt>
      <trkpt lat="43.72878" lon="7.40336">
        <ele>389.51</ele>
        <time>2016-07-29T16:40:20Z</time>
      </trkpt>
      <trkpt lat="43.72873" lon="7.40334">
        <ele>387.672</ele>
        <time>2016-07-29T16:40:45Z</time>
      </trkpt>
      <trkpt lat="43.72875" lon="7.40329">
        <ele>390.375</ele>
        <time>2016-07-29T16:41:15Z</time>
      </trkpt>
      <trkpt lat="43.7287" lon="7.40327">
        <ele>390.993</ele>
        <time>2016-07-29T16:41:23Z</time>
      </trkpt>
      <trkpt lat="43.72866" lon="7.40322">
        <ele>392.686</ele>
        <time>2016-07-29T16:41:32Z</time>
      </trkpt>
      <trkpt lat="43.72869" lon="7.40317">
        <ele>392.653</ele>
        <time>2016-07-29T16:41:46Z</time>
      </trkpt>
      <trkpt lat="43.7287" lon="7.40311">
        <ele>392.822</ele>
        <time>2016-07-29T16:42:00Z</time>
      </trkpt>
      <trkpt lat="43.72874" lon="7.40306">
        <ele>395.281</ele>
        <time>2016-07-29T16:42:15Z</time>
      </trkpt>
      <trkpt lat="43.72872" lon="7.403">
        <ele>399.556</ele>
        <time>2016-07-29T16:43:09Z</time>
      </trkpt>
      <trkpt lat="43.72875" lon="7.40297">
        <ele>405.084</ele>
        <time>2016-07-29T16:51:02Z</time>
      </trkpt>
      <trkpt lat="43.72876" lon="7.40297">
        <ele>405.851</ele>
        <time>2016-07-29T16:51:42Z</time>
      </trkpt>
      <trkpt lat="43.7288" lon="7.40295">
        <ele>405.23</ele>
        <time>2016-07-29T16:52:43Z</time>
      </trkpt>
      <trkpt lat="43.7288" lon="7.40288">
        <ele>405.031</ele>
        <time>2016-07-29T16:52:51Z</time>
      </trkpt>
      <trkpt lat="43.72885" lon="7.40286">
        <ele>406.696</ele>
        <time>2016-07-29T16:53:06Z</time>
      </trkpt>
      <trkpt lat="43.72888" lon="7.4028">
        <ele>405.123</ele>
        <time>2016-07-29T16:53:10Z</time>
      </trkpt>
      <trkpt lat="43.7289" lon="7.40274">
        <ele>404.748</ele>
        <time>2016-07-29T16:53:15Z</time>
      </trkpt>
      <trkpt lat="43.72892" lon="7.40268">
        <ele>403.637</ele>
        <time>2016-07-29T16:53:20Z</time>
      </trkpt>
      <trkpt lat="43.72895" lon="7.40261">
        <ele>403.451</ele>
        <time>2016-07-29T16:53:26Z</time>
      </trkpt>
      <trkpt lat="43.72896" lon="7.40254">
        <ele>399.915</ele>
        <time>2016-07-29T16:53:35Z</time>
      </trkpt>
      <trkpt lat="43.72899" lon="7.40249">
        <ele>400.958</ele>
        <time>2016-07-29T16:53:41Z</time>
      </trkpt>
      <trkpt lat="43.729" lon="7.40242">
        <ele>400.569</ele>
        <time>2016-07-29T16:53:52Z</time>
      </trkpt>
      <trkpt lat="43.72901" lon="7.40235">
        <ele>399.979</ele>
        <time>2016-07-29T16:53:56Z</time>
      </trkpt>
      <trkpt lat="43.72903" lon="7.40229">
        <ele>399.772</ele>
        <time>2016-07-29T16:54:01Z</time>
      </trkpt>
      <trkpt lat="43.72906" lon="7.40224">
        <ele>399.404</ele>
        <time>2016-07-29T16:54:16Z</time>
      </trkpt>
      <trkpt lat="43.72904" lon="7.4023">
        <ele>398.921</ele>
        <time>2016-07-29T16:55:02Z</time>
      </trkpt>
      <trkpt lat="43.72905" lon="7.40231">
        <ele>398.453</ele>
        <time>2016-07-29T16:55:07Z</time>
      </trkpt>
      <trkpt lat="43.72904" lon="7.40224">
        <ele>399.042</ele>
        <time>2016-07-29T16:55:13Z</time>
      </trkpt>
      <trkpt lat="43.72906" lon="7.40218">
        <ele>400.016</ele>
        <time>2016-07-29T16:55:18Z</time>
      </trkpt>
      <trkpt lat="43.7291" lon="7.40213">
        <ele>401.346</ele>
        <time>2016-07-29T16:55:24Z</time>
      </trkpt>
      <trkpt lat="43.72914" lon="7.40208">
        <ele>402.356</ele>
        <time>2016-07-29T16:55:28Z</time>
      </trkpt>
      <trkpt lat="43.72918" lon="7.40203">
        <ele>404.738</ele>
        <time>2016-07-29T16:55:33Z</time>
      </trkpt>
      <trkpt lat="43.72921" lon="7.40199">
        <ele>404.988</ele>
        <time>2016-07-29T16:55:37Z</time>
      </trkpt>
      <trkpt lat="43.72924" lon="7.40193">
        <ele>406.132</ele>
        <time>2016-07-29T16:55:43Z</time>
      </trkpt>
      <trkpt lat="43.72925" lon="7.4019">
        <ele>407.277</ele>
        <time>2016-07-29T16:55:47Z</time>
      </trkpt>
      <trkpt lat="43.72928" lon="7.40185">
        <ele>406.986</ele>
        <time>2016-07-29T16:55:49Z</time>
      </trkpt>
      <trkpt lat="43.72931" lon="7.40183">
        <ele>406.883</ele>
        <time>2016-07-29T16:55:54Z</time>
      </trkpt>
      <trkpt lat="43.72934" lon="7.40189">
        <ele>408.921</ele>
        <time>2016-07-29T16:56:03Z</time>
      </trkpt>
      <trkpt lat="43.72934" lon="7.40195">
        <ele>409.978</ele>
        <time>2016-07-29T16:56:09Z</time>
      </trkpt>
      <trkpt lat="43.72934" lon="7.40202">
        <ele>410.689</ele>
        <time>2016-07-29T16:56:17Z</time>
      </trkpt>
      <trkpt lat="43.72934" lon="7.40208">
        <ele>413.163</ele>
        <time>2016-07-29T16:56:23Z</time>
      </trkpt>
      <trkpt lat="43.72935" lon="7.40215">
        <ele>414.858</ele>
        <time>2016-07-29T16:56:28Z</time>
      </trkpt>
      <trkpt lat="43.72936" lon="7.4022">
        <ele>414.544</ele>
        <time>2016-07-29T16:56:34Z</time>
      </trkpt>
      <trkpt lat="43.72936" lon="7.40227">
        <ele>414.506</ele>
        <time>2016-07-29T16:56:40Z</time>
      </trkpt>
      <trkpt lat="43.72936" lon="7.40233">
        <ele>418.839</ele>
        <time>2016-07-29T16:56:46Z</time>
      </trkpt>
      <trkpt lat="43.72935" lon="7.40241">
        <ele>419.586</ele>
        <time>2016-07-29T16:56:55Z</time>
      </trkpt>
      <trkpt lat="43.72934" lon="7.40247">
        <ele>421.341</ele>
        <time>2016-07-29T16:56:59Z</time>
      </trkpt>
      <trkpt lat="43.72932" lon="7.40253">
        <ele>422.67</ele>
        <time>2016-07-29T16:57:05Z</time>
      </trkpt>
      <trkpt lat="43.72933" lon="7.40259">
        <ele>423.644</ele>
        <time>2016-07-29T16:57:09Z</time>
      </trkpt>
      <trkpt lat="43.72932" lon="7.40266">
        <ele>425.399</ele>
        <time>2016-07-29T16:57:14Z</time>
      </trkpt>
      <trkpt lat="43.7293" lon="7.40273">
        <ele>425.63</ele>
        <time>2016-07-29T16:57:18Z</time>
      </trkpt>
      <trkpt lat="43.72927" lon="7.40279">
        <ele>427.009</ele>
        <time>2016-07-29T16:57:22Z</time>
      </trkpt>
      <trkpt lat="43.72928" lon="7.40286">
        <ele>430.24</ele>
        <time>2016-07-29T16:57:27Z</time>
      </trkpt>
      <trkpt lat="43.72927" lon="7.40293">
        <ele>431.37</ele>
        <time>2016-07-29T16:57:33Z</time>
      </trkpt>
      <trkpt lat="43.72941" lon="7.40306">
        <ele>459.654</ele>
        <time>2016-07-29T16:57:42Z</time>
      </trkpt>
      <trkpt lat="43.72923" lon="7.40299">
        <ele>437.481</ele>
        <time>2016-07-29T16:57:43Z</time>
      </trkpt>
      <trkpt lat="43.72923" lon="7.40299">
        <ele>433.716</ele>
        <time>2016-07-29T16:57:47Z</time>
      </trkpt>
      <trkpt lat="43.72922" lon="7.40305">
        <ele>442.553</ele>
        <time>2016-07-29T16:58:03Z</time>
      </trkpt>
      <trkpt lat="43.72922" lon="7.40306">
        <ele>442.38</ele>
        <time>2016-07-29T16:58:06Z</time>
      </trkpt>
      <trkpt lat="43.72922" lon="7.40305">
        <ele>439.024</ele>
        <time>2016-07-29T16:58:27Z</time>
      </trkpt>
      <trkpt lat="43.72926" lon="7.40303">
        <ele>437.806</ele>
        <time>2016-07-29T16:59:56Z</time>
      </trkpt>
      <trkpt lat="43.7293" lon="7.40299">
        <ele>435.446</ele>
        <time>2016-07-29T17:00:06Z</time>
      </trkpt>
      <trkpt lat="43.72933" lon="7.40293">
        <ele>437.222</ele>
        <time>2016-07-29T17:00:13Z</time>
      </trkpt>
      <trkpt lat="43.72936" lon="7.40286">
        <ele>438.05</ele>
        <time>2016-07-29T17:00:18Z</time>
      </trkpt>
      <trkpt lat="43.72941" lon="7.40287">
        <ele>437.02</ele>
        <time>2016-07-29T17:00:35Z</time>
      </trkpt>
      <trkpt lat="43.72945" lon="7.40289">
        <ele>437.75</ele>
        <time>2016-07-29T17:00:46Z</time>
      </trkpt>
      <trkpt lat="43.72949" lon="7.40285">
        <ele>438.396</ele>
        <time>2016-07-29T17:00:54Z</time>
      </trkpt>
      <trkpt lat="43.72951" lon="7.40279">
        <ele>439.476</ele>
        <time>2016-07-29T17:01:01Z</time>
      </trkpt>
      <trkpt lat="43.72955" lon="7.4028">
        <ele>443.766</ele>
        <time>2016-07-29T17:01:12Z</time>
      </trkpt>
      <trkpt lat="43.72958" lon="7.40274">
        <ele>445.568</ele>
        <time>2016-07-29T17:01:19Z</time>
      </trkpt>
      <trkpt lat="43.72962" lon="7.40278">
        <ele>448.004</ele>
        <time>2016-07-29T17:01:33Z</time>
      </trkpt>
      <trkpt lat="43.72966" lon="7.4028">
        <ele>448.774</ele>
        <time>2016-07-29T17:01:39Z</time>
      </trkpt>
      <trkpt lat="43.72971" lon="7.40282">
        <ele>449.071</ele>
        <time>2016-07-29T17:01:45Z</time>
      </trkpt>
      <trkpt lat="43.72976" lon="7.40283">
        <ele>450.13</ele>
        <time>2016-07-29T17:01:54Z</time>
      </trkpt>
      <trkpt lat="43.72974" lon="7.40276">
        <ele>450.06</ele>
        <time>2016-07-29T17:02:48Z</time>
      </trkpt>
      <trkpt lat="43.72976" lon="7.40282">
        <ele>454.211</ele>
        <time>2016-07-29T17:03:35Z</time>
      </trkpt>
      <trkpt lat="43.72975" lon="7.40275">
        <ele>454.973</ele>
        <time>2016-07-29T17:04:15Z</time>
      </trkpt>
      <trkpt lat="43.72974" lon="7.40268">
        <ele>458.433</ele>
        <time>2016-07-29T17:06:18Z</time>
      </trkpt>
      <trkpt lat="43.72977" lon="7.40263">
        <ele>458.497</ele>
        <time>2016-07-29T17:06:23Z</time>
      </trkpt>
      <trkpt lat="43.7298" lon="7.40258">
        <ele>460.045</ele>
        <time>2016-07-29T17:06:27Z</time>
      </trkpt>
      <trkpt lat="43.72984" lon="7.40255">
        <ele>460.519</ele>
        <time>2016-07-29T17:06:33Z</time>
      </trkpt>
      <trkpt lat="43.72985" lon="7.40249">
        <ele>462.494</ele>
        <time>2016-07-29T17:07:07Z</time>
      </trkpt>
      <trkpt lat="43.72989" lon="7.40243">
        <ele>462.644</ele>
        <time>2016-07-29T17:07:12Z</time>
      </trkpt>
      <trkpt lat="43.72992" lon="7.40238">
        <ele>465.195</ele>
        <time>2016-07-29T17:07:17Z</time>
      </trkpt>
      <trkpt lat="43.72995" lon="7.40233">
        <ele>464.096</ele>
        <time>2016-07-29T17:07:22Z</time>
      </trkpt>
      <trkpt lat="43.72997" lon="7.40227">
        <ele>464.031</ele>
        <time>2016-07-29T17:07:28Z</time>
      </trkpt>
      <trkpt lat="43.73002" lon="7.40224">
        <ele>463.778</ele>
        <time>2016-07-29T17:07:34Z</time>
      </trkpt>
      <trkpt lat="43.73007" lon="7.4022">
        <ele>465.3</ele>
        <time>2016-07-29T17:07:39Z</time>
      </trkpt>
      <trkpt lat="43.73009" lon="7.40214">
        <ele>465.33</ele>
        <time>2016-07-29T17:07:45Z</time>
      </trkpt>
      <trkpt lat="43.7301" lon="7.40208">
        <ele>466.68</ele>
        <time>2016-07-29T17:07:49Z</time>
      </trkpt>
      <trkpt lat="43.73012" lon="7.40201">
        <ele>466.728</ele>
        <time>2016-07-29T17:07:55Z</time>
      </trkpt>
      <trkpt lat="43.73009" lon="7.40195">
        <ele>466.11</ele>
        <time>2016-07-29T17:08:06Z</time>
      </trkpt>
      <trkpt lat="43.7301" lon="7.40188">
        <ele>463.654</ele>
        <time>2016-07-29T17:08:21Z</time>
      </trkpt>
      <trkpt lat="43.73007" lon="7.40183">
        <ele>462.262</ele>
        <time>2016-07-29T17:08:27Z</time>
      </trkpt>
      <trkpt lat="43.73005" lon="7.40177">
        <ele>460.302</ele>
        <time>2016-07-29T17:08:46Z</time>
      </trkpt>
      <trkpt lat="43.73002" lon="7.40171">
        <ele>459.513</ele>
        <time>2016-07-29T17:09:02Z</time>
      </trkpt>
      <trkpt lat="43.73003" lon="7.40164">
        <ele>457.851</ele>
        <time>2016-07-29T17:09:07Z</time>
      </trkpt>
      <trkpt lat="43.72998" lon="7.40163">
        <ele>456.538</ele>
        <time>2016-07-29T17:09:13Z</time>
      </trkpt>
      <trkpt lat="43.72997" lon="7.40156">
        <ele>453.104</ele>
        <time>2016-07-29T17:09:21Z</time>
      </trkpt>
      <trkpt lat="43.72999" lon="7.40149">
        <ele>451.571</ele>
        <time>2016-07-29T17:09:27Z</time>
      </trkpt>
      <trkpt lat="43.72999" lon="7.40143">
        <ele>450.079</ele>
        <time>2016-07-29T17:09:35Z</time>
      </trkpt>
      <trkpt lat="43.73001" lon="7.40137">
        <ele>450.067</ele>
        <time>2016-07-29T17:09:40Z</time>
      </trkpt>
      <trkpt lat="43.73004" lon="7.40131">
        <ele>450.316</ele>
        <time>2016-07-29T17:09:46Z</time>
      </trkpt>
      <trkpt lat="43.73007" lon="7.40126">
        <ele>451.535</ele>
        <time>2016-07-29T17:09:51Z</time>
      </trkpt>
      <trkpt lat="43.73008" lon="7.40119">
        <ele>451.256</ele>
        <time>2016-07-29T17:09:56Z</time>
      </trkpt>
      <trkpt lat="43.73011" lon="7.40112">
        <ele>450.288</ele>
        <time>2016-07-29T17:10:02Z</time>
      </trkpt>
      <trkpt lat="43.73014" lon="7.40107">
        <ele>448.728</ele>
        <time>2016-07-29T17:10:06Z</time>
      </trkpt>
      <trkpt lat="43.73017" lon="7.40102">
        <ele>449.133</ele>
        <time>2016-07-29T17:10:11Z</time>
      </trkpt>
      <trkpt lat="43.7302" lon="7.40097">
        <ele>449.643</ele>
        <time>2016-07-29T17:10:15Z</time>
      </trkpt>
      <trkpt lat="43.73023" lon="7.40092">
        <ele>448.554</ele>
        <time>2016-07-29T17:10:19Z</time>
      </trkpt>
      <trkpt lat="43.73024" lon="7.40085">
        <ele>449.648</ele>
        <time>2016-07-29T17:10:30Z</time>
      </trkpt>
      <trkpt lat="43.73024" lon="7.40085">
        <ele>447.886</ele>
        <time>2016-07-29T17:10:39Z</time>
      </trkpt>
      <trkpt lat="43.73027" lon="7.4008">
        <ele>450.185</ele>
        <time>2016-07-29T17:10:49Z</time>
      </trkpt>
      <trkpt lat="43.73027" lon="7.40074">
        <ele>450.01</ele>
        <time>2016-07-29T17:10:54Z</time>
      </trkpt>
      <trkpt lat="43.73028" lon="7.40068">
        <ele>450.065</ele>
        <time>2016-07-29T17:11:19Z</time>
      </trkpt>
      <trkpt lat="43.73029" lon="7.40061">
        <ele>442.049</ele>
        <time>2016-07-29T17:11:38Z</time>
      </trkpt>
      <trkpt lat="43.73029" lon="7.40054">
        <ele>444.498</ele>
        <time>2016-07-29T17:11:43Z</time>
      </trkpt>
      <trkpt lat="43.7303" lon="7.40048">
        <ele>444.125</ele>
        <time>2016-07-29T17:11:48Z</time>
      </trkpt>
      <trkpt lat="43.73032" lon="7.40042">
        <ele>438.685</ele>
        <time>2016-07-29T17:12:02Z</time>
      </trkpt>
      <trkpt lat="43.73033" lon="7.40036">
        <ele>439.006</ele>
        <time>2016-07-29T17:12:10Z</time>
      </trkpt>
      <trkpt lat="43.73034" lon="7.40029">
        <ele>438.871</ele>
        <time>2016-07-29T17:12:16Z</time>
      </trkpt>
      <trkpt lat="43.73035" lon="7.40022">
        <ele>438.585</ele>
        <time>2016-07-29T17:12:21Z</time>
      </trkpt>
      <trkpt lat="43.73037" lon="7.40016">
        <ele>437.076</ele>
        <time>2016-07-29T17:12:26Z</time>
      </trkpt>
      <trkpt lat="43.7304" lon="7.4001">
        <ele>438.139</ele>
        <time>2016-07-29T17:12:32Z</time>
      </trkpt>
      <trkpt lat="43.73041" lon="7.40003">
        <ele>438.771</ele>
        <time>2016-07-29T17:12:36Z</time>
      </trkpt>
      <trkpt lat="43.73044" lon="7.39997">
        <ele>440.559</ele>
        <time>2016-07-29T17:12:53Z</time>
      </trkpt>
      <trkpt lat="43.73046" lon="7.39991">
        <ele>441.309</ele>
        <time>2016-07-29T17:12:57Z</time>
      </trkpt>
      <trkpt lat="43.73047" lon="7.39984">
        <ele>444.146</ele>
        <time>2016-07-29T17:13:02Z</time>
      </trkpt>
      <trkpt lat="43.7305" lon="7.39977">
        <ele>446.23</ele>
        <time>2016-07-29T17:13:07Z</time>
      </trkpt>
      <trkpt lat="43.73053" lon="7.39972">
        <ele>446.179</ele>
        <time>2016-07-29T17:13:12Z</time>
      </trkpt>
      <trkpt lat="43.73056" lon="7.39967">
        <ele>447.508</ele>
        <time>2016-07-29T17:13:17Z</time>
      </trkpt>
      <trkpt lat="43.73057" lon="7.3996">
        <ele>448.651</ele>
        <time>2016-07-29T17:13:22Z</time>
      </trkpt>
      <trkpt lat="43.73057" lon="7.39953">
        <ele>449.046</ele>
        <time>2016-07-29T17:13:27Z</time>
      </trkpt>
      <trkpt lat="43.73056" lon="7.39947">
        <ele>448.579</ele>
        <time>2016-07-29T17:13:33Z</time>
      </trkpt>
      <trkpt lat="43.73056" lon="7.3994">
        <ele>447.945</ele>
        <time>2016-07-29T17:13:40Z</time>
      </trkpt>
      <trkpt lat="43.73061" lon="7.39938">
        <ele>448.453</ele>
        <time>2016-07-29T17:13:49Z</time>
      </trkpt>
      <trkpt lat="43.73063" lon="7.39945">
        <ele>449.415</ele>
        <time>2016-07-29T17:14:00Z</time>
      </trkpt>
      <trkpt lat="43.73065" lon="7.39951">
        <ele>449.963</ele>
        <time>2016-07-29T17:14:05Z</time>
      </trkpt>
      <trkpt lat="43.73067" lon="7.39958">
        <ele>450.583</ele>
        <time>2016-07-29T17:14:10Z</time>
      </trkpt>
      <trkpt lat="43.73068" lon="7.39965">
        <ele>450.282</ele>
        <time>2016-07-29T17:14:16Z</time>
      </trkpt>
      <trkpt lat="43.73068" lon="7.39972">
        <ele>450.766</ele>
        <time>2016-07-29T17:14:22Z</time>
      </trkpt>
      <trkpt lat="43.73067" lon="7.39979">
        <ele>450.53</ele>
        <time>2016-07-29T17:14:27Z</time>
      </trkpt>
      <trkpt lat="43.73066" lon="7.39985">
        <ele>450.891</ele>
        <time>2016-07-29T17:14:33Z</time>
      </trkpt>
      <trkpt lat="43.73069" lon="7.3998">
        <ele>453.489</ele>
        <time>2016-07-29T17:14:42Z</time>
      </trkpt>
      <trkpt lat="43.73071" lon="7.39973">
        <ele>456.284</ele>
        <time>2016-07-29T17:14:49Z</time>
      </trkpt>
      <trkpt lat="43.73074" lon="7.39967">
        <ele>457.087</ele>
        <time>2016-07-29T17:14:55Z</time>
      </trkpt>
      <trkpt lat="43.73076" lon="7.39973">
        <ele>457.32</ele>
        <time>2016-07-29T17:15:07Z</time>
      </trkpt>
      <trkpt lat="43.73076" lon="7.3998">
        <ele>458.527</ele>
        <time>2016-07-29T17:15:13Z</time>
      </trkpt>
      <trkpt lat="43.73075" lon="7.39986">
        <ele>459.331</ele>
        <time>2016-07-29T17:15:19Z</time>
      </trkpt>
      <trkpt lat="43.73079" lon="7.39986">
        <ele>461.619</ele>
        <time>2016-07-29T17:15:38Z</time>
      </trkpt>
      <trkpt lat="43.73081" lon="7.3998">
        <ele>463.83</ele>
        <time>2016-07-29T17:15:43Z</time>
      </trkpt>
      <trkpt lat="43.73082" lon="7.39986">
        <ele>466.099</ele>
        <time>2016-07-29T17:15:57Z</time>
      </trkpt>
      <trkpt lat="43.73079" lon="7.39992">
        <ele>466.006</ele>
        <time>2016-07-29T17:16:03Z</time>
      </trkpt>
      <trkpt lat="43.73078" lon="7.39999">
        <ele>468.143</ele>
        <time>2016-07-29T17:16:09Z</time>
      </trkpt>
      <trkpt lat="43.73075" lon="7.40005">
        <ele>469.593</ele>
        <time>2016-07-29T17:16:15Z</time>
      </trkpt>
      <trkpt lat="43.73074" lon="7.40009">
        <ele>472.346</ele>
        <time>2016-07-29T17:16:32Z</time>
      </trkpt>
      <trkpt lat="43.73077" lon="7.40003">
        <ele>473.209</ele>
        <time>2016-07-29T17:16:41Z</time>
      </trkpt>
      <trkpt lat="43.73081" lon="7.39999">
        <ele>473.689</ele>
        <time>2016-07-29T17:16:46Z</time>
      </trkpt>
      <trkpt lat="43.73084" lon="7.39993">
        <ele>474.199</ele>
        <time>2016-07-29T17:16:52Z</time>
      </trkpt>
      <trkpt lat="43.73086" lon="7.39986">
        <ele>474.065</ele>
        <time>2016-07-29T17:16:57Z</time>
      </trkpt>
      <trkpt lat="43.73087" lon="7.3998">
        <ele>475.144</ele>
        <time>2016-07-29T17:17:02Z</time>
      </trkpt>
      <trkpt lat="43.73087" lon="7.39973">
        <ele>475.335</ele>
        <time>2016-07-29T17:17:07Z</time>
      </trkpt>
      <trkpt lat="43.73085" lon="7.39969">
        <ele>475.448</ele>
        <time>2016-07-29T17:17:11Z</time>
      </trkpt>
      <trkpt lat="43.73083" lon="7.39963">
        <ele>475.363</ele>
        <time>2016-07-29T17:17:15Z</time>
      </trkpt>
      <trkpt lat="43.73083" lon="7.39955">
        <ele>474.738</ele>
        <time>2016-07-29T17:17:20Z</time>
      </trkpt>
      <trkpt lat="43.73084" lon="7.39949">
        <ele>474.64</ele>
        <time>2016-07-29T17:17:24Z</time>
      </trkpt>
      <trkpt lat="43.73085" lon="7.39942">
        <ele>474.552</ele>
        <time>2016-07-29T17:17:28Z</time>
      </trkpt>
      <trkpt lat="43.73086" lon="7.39936">
        <ele>474.883</ele>
        <time>2016-07-29T17:17:33Z</time>
      </trkpt>
      <trkpt lat="43.73085" lon="7.39929">
        <ele>475.193</ele>
        <time>2016-07-29T17:17:38Z</time>
      </trkpt>
      <trkpt lat="43.73082" lon="7.39923">
        <ele>476.35</ele>
        <time>2016-07-29T17:17:43Z</time>
      </trkpt>
      <trkpt lat="43.7308" lon="7.39917">
        <ele>476.716</ele>
        <time>2016-07-29T17:17:49Z</time>
      </trkpt>
      <trkpt lat="43.73085" lon="7.39918">
        <ele>477.63</ele>
        <time>2016-07-29T17:17:54Z</time>
      </trkpt>
      <trkpt lat="43.73088" lon="7.39923">
        <ele>479.471</ele>
        <time>2016-07-29T17:17:59Z</time>
      </trkpt>
      <trkpt lat="43.73091" lon="7.39929">
        <ele>478.694</ele>
        <time>2016-07-29T17:18:04Z</time>
      </trkpt>
      <trkpt lat="43.73092" lon="7.39934">
        <ele>479.611</ele>
        <time>2016-07-29T17:18:08Z</time>
      </trkpt>
      <trkpt lat="43.73094" lon="7.3994">
        <ele>479.429</ele>
        <time>2016-07-29T17:18:12Z</time>
      </trkpt>
      <trkpt lat="43.73096" lon="7.39947">
        <ele>479.477</ele>
        <time>2016-07-29T17:18:17Z</time>
      </trkpt>
      <trkpt lat="43.73097" lon="7.39953">
        <ele>479.159</ele>
        <time>2016-07-29T17:18:21Z</time>
      </trkpt>
      <trkpt lat="43.731" lon="7.39959">
        <ele>480.989</ele>
        <time>2016-07-29T17:18:26Z</time>
      </trkpt>
      <trkpt lat="43.73102" lon="7.39965">
        <ele>480.048</ele>
        <time>2016-07-29T17:18:31Z</time>
      </trkpt>
      <trkpt lat="43.73105" lon="7.39971">
        <ele>482.219</ele>
        <time>2016-07-29T17:18:38Z</time>
      </trkpt>
      <trkpt lat="43.73106" lon="7.39979">
        <ele>482.505</ele>
        <time>2016-07-29T17:18:44Z</time>
      </trkpt>
      <trkpt lat="43.73106" lon="7.39985">
        <ele>483.265</ele>
        <time>2016-07-29T17:18:49Z</time>
      </trkpt>
      <trkpt lat="43.73107" lon="7.39992">
        <ele>485.861</ele>
        <time>2016-07-29T17:18:53Z</time>
      </trkpt>
      <trkpt lat="43.73107" lon="7.39999">
        <ele>486.873</ele>
        <time>2016-07-29T17:18:59Z</time>
      </trkpt>
      <trkpt lat="43.73107" lon="7.40006">
        <ele>490.274</ele>
        <time>2016-07-29T17:19:05Z</time>
      </trkpt>
      <trkpt lat="43.73105" lon="7.40012">
        <ele>491.744</ele>
        <time>2016-07-29T17:19:12Z</time>
      </trkpt>
      <trkpt lat="43.73102" lon="7.40017">
        <ele>491.965</ele>
        <time>2016-07-29T17:19:18Z</time>
      </trkpt>
      <trkpt lat="43.73099" lon="7.40023">
        <ele>492.616</ele>
        <time>2016-07-29T17:19:23Z</time>
      </trkpt>
      <trkpt lat="43.73097" lon="7.40029">
        <ele>493.776</ele>
        <time>2016-07-29T17:19:28Z</time>
      </trkpt>
      <trkpt lat="43.73102" lon="7.40028">
        <ele>496.993</ele>
        <time>2016-07-29T17:20:04Z</time>
      </trkpt>
      <trkpt lat="43.73098" lon="7.40031">
        <ele>497.349</ele>
        <time>2016-07-29T17:20:13Z</time>
      </trkpt>
      <trkpt lat="43.73101" lon="7.40027">
        <ele>498.269</ele>
        <time>2016-07-29T17:20:27Z</time>
      </trkpt>
      <trkpt lat="43.73098" lon="7.40031">
        <ele>498.419</ele>
        <time>2016-07-29T17:21:20Z</time>
      </trkpt>
      <trkpt lat="43.73102" lon="7.40034">
        <ele>496.064</ele>
        <time>2016-07-29T17:23:41Z</time>
      </trkpt>
      <trkpt lat="43.73106" lon="7.40031">
        <ele>492.426</ele>
        <time>2016-07-29T17:23:49Z</time>
      </trkpt>
      <trkpt lat="43.73108" lon="7.40031">
        <ele>491.567</ele>
        <time>2016-07-29T17:23:59Z</time>
      </trkpt>
      <trkpt lat="43.73109" lon="7.40024">
        <ele>495.788</ele>
        <time>2016-07-29T17:24:05Z</time>
      </trkpt>
      <trkpt lat="43.73112" lon="7.40022">
        <ele>500.475</ele>
        <time>2016-07-29T17:24:42Z</time>
      </trkpt>
      <trkpt lat="43.73112" lon="7.40028">
        <ele>499.057</ele>
        <time>2016-07-29T17:24:55Z</time>
      </trkpt>
      <trkpt lat="43.7311" lon="7.40035">
        <ele>500.096</ele>
        <time>2016-07-29T17:24:59Z</time>
      </trkpt>
      <trkpt lat="43.73111" lon="7.40042">
        <ele>500.646</ele>
        <time>2016-07-29T17:25:05Z</time>
      </trkpt>
      <trkpt lat="43.73109" lon="7.40048">
        <ele>501.182</ele>
        <time>2016-07-29T17:25:10Z</time>
      </trkpt>
      <trkpt lat="43.73105" lon="7.40051">
        <ele>501.395</ele>
        <time>2016-07-29T17:25:14Z</time>
      </trkpt>
      <trkpt lat="43.73102" lon="7.40056">
        <ele>502.569</ele>
        <time>2016-07-29T17:25:19Z</time>
      </trkpt>
      <trkpt lat="43.73099" lon="7.40061">
        <ele>503.003</ele>
        <time>2016-07-29T17:25:25Z</time>
      </trkpt>
      <trkpt lat="43.73097" lon="7.40068">
        <ele>503.325</ele>
        <time>2016-07-29T17:25:31Z</time>
      </trkpt>
      <trkpt lat="43.73097" lon="7.4007">
        <ele>502.446</ele>
        <time>2016-07-29T17:25:34Z</time>
      </trkpt>
      <trkpt lat="43.73096" lon="7.40077">
        <ele>503.497</ele>
        <time>2016-07-29T17:25:38Z</time>
      </trkpt>
      <trkpt lat="43.73094" lon="7.40084">
        <ele>503.991</ele>
        <time>2016-07-29T17:25:43Z</time>
      </trkpt>
      <trkpt lat="43.73094" lon="7.40091">
        <ele>504.714</ele>
        <time>2016-07-29T17:25:49Z</time>
      </trkpt>
      <trkpt lat="43.73093" lon="7.40097">
        <ele>505.453</ele>
        <time>2016-07-29T17:25:54Z</time>
      </trkpt>
      <trkpt lat="43.7309" lon="7.40104">
        <ele>507.049</ele>
        <time>2016-07-29T17:26:00Z</time>
      </trkpt>
      <trkpt lat="43.73087" lon="7.40109">
        <ele>508.787</ele>
        <time>2016-07-29T17:26:06Z</time>
      </trkpt>
      <trkpt lat="43.73087" lon="7.40116">
        <ele>509.18</ele>
        <time>2016-07-29T17:26:11Z</time>
      </trkpt>
      <trkpt lat="43.73087" lon="7.40123">
        <ele>509.987</ele>
        <time>2016-07-29T17:26:19Z</time>
      </trkpt>
      <trkpt lat="43.73086" lon="7.40129">
        <ele>511.67</ele>
        <time>2016-07-29T17:26:26Z</time>
      </trkpt>
      <trkpt lat="43.73083" lon="7.40135">
        <ele>513.096</ele>
        <time>2016-07-29T17:26:33Z</time>
      </trkpt>
      <trkpt lat="43.73083" lon="7.40142">
        <ele>514.402</ele>
        <time>2016-07-29T17:26:39Z</time>
      </trkpt>
      <trkpt lat="43.73082" lon="7.40148">
        <ele>516.455</ele>
        <time>2016-07-29T17:26:53Z</time>
      </trkpt>
      <trkpt lat="43.7308" lon="7.40154">
        <ele>518.151</ele>
        <time>2016-07-29T17:26:59Z</time>
      </trkpt>
      <trkpt lat="43.73079" lon="7.40161">
        <ele>519.602</ele>
        <time>2016-07-29T17:27:05Z</time>
      </trkpt>
      <trkpt lat="43.73079" lon="7.40162">
        <ele>520.776</ele>
        <time>2016-07-29T17:27:20Z</time>
      </trkpt>
      <trkpt lat="43.73079" lon="7.40169">
        <ele>521.693</ele>
        <time>2016-07-29T17:27:28Z</time>
      </trkpt>
      <trkpt lat="43.73078" lon="7.40174">
        <ele>521.716</ele>
        <time>2016-07-29T17:27:33Z</time>
      </trkpt>
      <trkpt lat="43.73075" lon="7.40181">
        <ele>521.411</ele>
        <time>2016-07-29T17:27:42Z</time>
      </trkpt>
      <trkpt lat="43.73074" lon="7.40187">
        <ele>521.817</ele>
        <time>2016-07-29T17:27:48Z</time>
      </trkpt>
      <trkpt lat="43.73071" lon="7.40193">
        <ele>524.034</ele>
        <time>2016-07-29T17:27:53Z</time>
      </trkpt>
      <trkpt lat="43.73069" lon="7.40199">
        <ele>526.104</ele>
        <time>2016-07-29T17:27:58Z</time>
      </trkpt>
      <trkpt lat="43.73067" lon="7.40206">
        <ele>526.234</ele>
        <time>2016-07-29T17:28:26Z</time>
      </trkpt>
      <trkpt lat="43.73063" lon="7.40211">
        <ele>527.372</ele>
        <time>2016-07-29T17:28:31Z</time>
      </trkpt>
      <trkpt lat="43.73061" lon="7.40216">
        <ele>527.083</ele>
        <time>2016-07-29T17:28:35Z</time>
      </trkpt>
      <trkpt lat="43.73057" lon="7.40221">
        <ele>526.223</ele>
        <time>2016-07-29T17:28:41Z</time>
      </trkpt>
      <trkpt lat="43.73054" lon="7.40226">
        <ele>526.219</ele>
        <time>2016-07-29T17:28:46Z</time>
      </trkpt>
      <trkpt lat="43.7305" lon="7.40232">
        <ele>526.199</ele>
        <time>2016-07-29T17:28:50Z</time>
      </trkpt>
      <trkpt lat="43.73045" lon="7.40235">
        <ele>527.255</ele>
        <time>2016-07-29T17:28:55Z</time>
      </trkpt>
      <trkpt lat="43.7305" lon="7.40235">
        <ele>529.347</ele>
        <time>2016-07-29T17:29:15Z</time>
      </trkpt>
      <trkpt lat="43.73045" lon="7.40236">
        <ele>529.746</ele>
        <time>2016-07-29T17:29:23Z</time>
      </trkpt>
      <trkpt lat="43.7304" lon="7.40238">
        <ele>530.599</ele>
        <time>2016-07-29T17:29:43Z</time>
      </trkpt>
      <trkpt lat="43.73036" lon="7.40242">
        <ele>530.371</ele>
        <time>2016-07-29T17:29:48Z</time>
      </trkpt>
      <trkpt lat="43.7304" lon="7.40238">
        <ele>531.603</ele>
        <time>2016-07-29T17:30:02Z</time>
      </trkpt>
      <trkpt lat="43.73045" lon="7.40234">
        <ele>531.604</ele>
        <time>2016-07-29T17:30:07Z</time>
      </trkpt>
      <trkpt lat="43.73048" lon="7.4023">
        <ele>531.83</ele>
        <time>2016-07-29T17:30:11Z</time>
      </trkpt>
      <trkpt lat="43.73052" lon="7.40224">
        <ele>531.939</ele>
        <time>2016-07-29T17:30:18Z</time>
      </trkpt>
      <trkpt lat="43.73055" lon="7.40218">
        <ele>532.902</ele>
        <time>2016-07-29T17:30:23Z</time>
      </trkpt>
      <trkpt lat="43.7306" lon="7.40213">
        <ele>531.983</ele>
        <time>2016-07-29T17:30:28Z</time>
      </trkpt>
      <trkpt lat="43.73064" lon="7.40215">
        <ele>532.232</ele>
        <time>2016-07-29T17:31:35Z</time>
      </trkpt>
      <trkpt lat="43.73069" lon="7.40212">
        <ele>531.461</ele>
        <time>2016-07-29T17:33:09Z</time>
      </trkpt>
      <trkpt lat="43.73074" lon="7.40207">
        <ele>532.439</ele>
        <time>2016-07-29T17:33:14Z</time>
      </trkpt>
      <trkpt lat="43.73078" lon="7.40203">
        <ele>532.006</ele>
        <time>2016-07-29T17:33:20Z</time>
      </trkpt>
      <trkpt lat="43.73083" lon="7.40202">
        <ele>530.335</ele>
        <time>2016-07-29T17:33:31Z</time>
      </trkpt>
      <trkpt lat="43.73086" lon="7.40197">
        <ele>532.463</ele>
        <time>2016-07-29T17:33:37Z</time>
      </trkpt>
      <trkpt lat="43.73082" lon="7.402">
        <ele>533.825</ele>
        <time>2016-07-29T17:33:46Z</time>
      </trkpt>
      <trkpt lat="43.73088" lon="7.40199">
        <ele>536.634</ele>
        <time>2016-07-29T17:33:57Z</time>
      </trkpt>
      <trkpt lat="43.73088" lon="7.40206">
        <ele>536.963</ele>
        <time>2016-07-29T17:34:12Z</time>
      </trkpt>
      <trkpt lat="43.73084" lon="7.4021">
        <ele>537.211</ele>
        <time>2016-07-29T17:34:17Z</time>
      </trkpt>
      <trkpt lat="43.7308" lon="7.40212">
        <ele>537.179</ele>
        <time>2016-07-29T17:34:22Z</time>
      </trkpt>
      <trkpt lat="43.73076" lon="7.40217">
        <ele>538.793</ele>
        <time>2016-07-29T17:34:28Z</time>
      </trkpt>
      <trkpt lat="43.73073" lon="7.40217">
        <ele>541.434</ele>
        <time>2016-07-29T17:34:48Z</time>
      </trkpt>
      <trkpt lat="43.73072" lon="7.40218">
        <ele>541.575</ele>
        <time>2016-07-29T17:35:06Z</time>
      </trkpt>
      <trkpt lat="43.73077" lon="7.40221">
        <ele>542.33</ele>
        <time>2016-07-29T17:35:37Z</time>
      </trkpt>
      <trkpt lat="43.73081" lon="7.40217">
        <ele>547.105</ele>
        <time>2016-07-29T17:35:46Z</time>
      </trkpt>
      <trkpt lat="43.73086" lon="7.40215">
        <ele>548.306</ele>
        <time>2016-07-29T17:36:04Z</time>
      </trkpt>
      <trkpt lat="43.73087" lon="7.40223">
        <ele>551.889</ele>
        <time>2016-07-29T17:36:21Z</time>
      </trkpt>
      <trkpt lat="43.73083" lon="7.40226">
        <ele>552.925</ele>
        <time>2016-07-29T17:36:31Z</time>
      </trkpt>
      <trkpt lat="43.73083" lon="7.40233">
        <ele>550.93</ele>
        <time>2016-07-29T17:37:11Z</time>
      </trkpt>
      <trkpt lat="43.73082" lon="7.40239">
        <ele>551.958</ele>
        <time>2016-07-29T17:37:17Z</time>
      </trkpt>
      <trkpt lat="43.73079" lon="7.40244">
        <ele>551.827</ele>
        <time>2016-07-29T17:37:24Z</time>
      </trkpt>
      <trkpt lat="43.73075" lon="7.40247">
        <ele>552.874</ele>
        <time>2016-07-29T17:37:35Z</time>
      </trkpt>
      <trkpt lat="43.73077" lon="7.40241">
        <ele>551.654</ele>
        <time>2016-07-29T17:37:44Z</time>
      </trkpt>
      <trkpt lat="43.73074" lon="7.40235">
        <ele>551.138</ele>
        <time>2016-07-29T17:37:48Z</time>
      </trkpt>
      <trkpt lat="43.7307" lon="7.40236">
        <ele>551.301</ele>
        <time>2016-07-29T17:37:53Z</time>
      </trkpt>
      <trkpt lat="43.73067" lon="7.40241">
        <ele>551.829</ele>
        <time>2016-07-29T17:37:57Z</time>
      </trkpt>
      <trkpt lat="43.73064" lon="7.40246">
        <ele>552.148</ele>
        <time>2016-07-29T17:38:04Z</time>
      </trkpt>
      <trkpt lat="43.73061" lon="7.40252">
        <ele>551.986</ele>
        <time>2016-07-29T17:38:08Z</time>
      </trkpt>
      <trkpt lat="43.73059" lon="7.40258">
        <ele>552.058</ele>
        <time>2016-07-29T17:38:12Z</time>
      </trkpt>
      <trkpt lat="43.73054" lon="7.40261">
        <ele>552.07</ele>
        <time>2016-07-29T17:38:20Z</time>
      </trkpt>
      <trkpt lat="43.73049" lon="7.40262">
        <ele>552.369</ele>
        <time>2016-07-29T17:38:25Z</time>
      </trkpt>
      <trkpt lat="43.73045" lon="7.40262">
        <ele>552.852</ele>
        <time>2016-07-29T17:39:13Z</time>
      </trkpt>
      <trkpt lat="43.73044" lon="7.40268">
        <ele>549.603</ele>
        <time>2016-07-29T17:40:06Z</time>
      </trkpt>
      <trkpt lat="43.73039" lon="7.40267">
        <ele>546.919</ele>
        <time>2016-07-29T17:40:16Z</time>
      </trkpt>
      <trkpt lat="43.73035" lon="7.40271">
        <ele>546.285</ele>
        <time>2016-07-29T17:40:21Z</time>
      </trkpt>
      <trkpt lat="43.73031" lon="7.40277">
        <ele>545.808</ele>
        <time>2016-07-29T17:40:26Z</time>
      </trkpt>
      <trkpt lat="43.73028" lon="7.40282">
        <ele>546.523</ele>
        <time>2016-07-29T17:40:32Z</time>
      </trkpt>
      <trkpt lat="43.73032" lon="7.40276">
        <ele>544.37</ele>
        <time>2016-07-29T17:42:17Z</time>
      </trkpt>
      <trkpt lat="43.73035" lon="7.40273">
        <ele>546.624</ele>
        <time>2016-07-29T17:42:35Z</time>
      </trkpt>
      <trkpt lat="43.73038" lon="7.40267">
        <ele>548.745</ele>
        <time>2016-07-29T17:42:44Z</time>
      </trkpt>
      <trkpt lat="43.73043" lon="7.40263">
        <ele>549.656</ele>
        <time>2016-07-29T17:42:51Z</time>
      </trkpt>
      <trkpt lat="43.73047" lon="7.40261">
        <ele>549.463</ele>
        <time>2016-07-29T17:42:58Z</time>
      </trkpt>
      <trkpt lat="43.73052" lon="7.40261">
        <ele>549.003</ele>
        <time>2016-07-29T17:43:15Z</time>
      </trkpt>
      <trkpt lat="43.73055" lon="7.40257">
        <ele>549.981</ele>
        <time>2016-07-29T17:43:23Z</time>
      </trkpt>
      <trkpt lat="43.73059" lon="7.40252">
        <ele>548.673</ele>
        <time>2016-07-29T17:43:28Z</time>
      </trkpt>
      <trkpt lat="43.73062" lon="7.40247">
        <ele>548.895</ele>
        <time>2016-07-29T17:43:34Z</time>
      </trkpt>
      <trkpt lat="43.73065" lon="7.40242">
        <ele>547.51</ele>
        <time>2016-07-29T17:43:42Z</time>
      </trkpt>
      <trkpt lat="43.73069" lon="7.40237">
        <ele>546.308</ele>
        <time>2016-07-29T17:43:48Z</time>
      </trkpt>
      <trkpt lat="43.73072" lon="7.40233">
        <ele>545.416</ele>
        <time>2016-07-29T17:43:53Z</time>
      </trkpt>
      <trkpt lat="43.73077" lon="7.40228">
        <ele>545.405</ele>
        <time>2016-07-29T17:43:57Z</time>
      </trkpt>
      <trkpt lat="43.7308" lon="7.40222">
        <ele>544.42</ele>
        <time>2016-07-29T17:44:02Z</time>
      </trkpt>
      <trkpt lat="43.73084" lon="7.40218">
        <ele>543.499</ele>
        <time>2016-07-29T17:44:06Z</time>
      </trkpt>
      <trkpt lat="43.73088" lon="7.40214">
        <ele>543.252</ele>
        <time>2016-07-29T17:44:11Z</time>
      </trkpt>
      <trkpt lat="43.73092" lon="7.40209">
        <ele>543.639</ele>
        <time>2016-07-29T17:44:15Z</time>
      </trkpt>
      <trkpt lat="43.73096" lon="7.40205">
        <ele>543.318</ele>
        <time>2016-07-29T17:44:23Z</time>
      </trkpt>
      <trkpt lat="43.73098" lon="7.40199">
        <ele>542.888</ele>
        <time>2016-07-29T17:44:29Z</time>
      </trkpt>
      <trkpt lat="43.73101" lon="7.40194">
        <ele>542.824</ele>
        <time>2016-07-29T17:44:36Z</time>
      </trkpt>
      <trkpt lat="43.73106" lon="7.40193">
        <ele>542.833</ele>
        <time>2016-07-29T17:44:40Z</time>
      </trkpt>
      <trkpt lat="43.73111" lon="7.40192">
        <ele>543.593</ele>
        <time>2016-07-29T17:44:58Z</time>
      </trkpt>
      <trkpt lat="43.73114" lon="7.40187">
        <ele>544.172</ele>
        <time>2016-07-29T17:45:02Z</time>
      </trkpt>
      <trkpt lat="43.73118" lon="7.40183">
        <ele>544.954</ele>
        <time>2016-07-29T17:45:06Z</time>
      </trkpt>
      <trkpt lat="43.73123" lon="7.40179">
        <ele>544.648</ele>
        <time>2016-07-29T17:45:10Z</time>
      </trkpt>
      <trkpt lat="43.73127" lon="7.40176">
        <ele>545.292</ele>
        <time>2016-07-29T17:45:15Z</time>
      </trkpt>
      <trkpt lat="43.73132" lon="7.40174">
        <ele>545.144</ele>
        <time>2016-07-29T17:45:20Z</time>
      </trkpt>
      <trkpt lat="43.73137" lon="7.40175">
        <ele>546.025</ele>
        <time>2016-07-29T17:45:25Z</time>
      </trkpt>
      <trkpt lat="43.73142" lon="7.40177">
        <ele>546.59</ele>
        <time>2016-07-29T17:45:30Z</time>
      </trkpt>
      <trkpt lat="43.73146" lon="7.40178">
        <ele>547.431</ele>
        <time>2016-07-29T17:45:34Z</time>
      </trkpt>
      <trkpt lat="43.73151" lon="7.40181">
        <ele>547.331</ele>
        <time>2016-07-29T17:45:39Z</time>
      </trkpt>
      <trkpt lat="43.73155" lon="7.40184">
        <ele>547.914</ele>
        <time>2016-07-29T17:45:45Z</time>
      </trkpt>
      <trkpt lat="43.7316" lon="7.40185">
        <ele>549.243</ele>
        <time>2016-07-29T17:45:53Z</time>
      </trkpt>
      <trkpt lat="43.73165" lon="7.40186">
        <ele>549.896</ele>
        <time>2016-07-29T17:45:59Z</time>
      </trkpt>
      <trkpt lat="43.73169" lon="7.4019">
        <ele>550.627</ele>
        <time>2016-07-29T17:46:08Z</time>
      </trkpt>
      <trkpt lat="43.73174" lon="7.40191">
        <ele>550.28</ele>
        <time>2016-07-29T17:46:14Z</time>
      </trkpt>
      <trkpt lat="43.73175" lon="7.40198">
        <ele>551.754</ele>
        <time>2016-07-29T17:46:21Z</time>
      </trkpt>
      <trkpt lat="43.73171" lon="7.40201">
        <ele>553.1</ele>
        <time>2016-07-29T17:46:26Z</time>
      </trkpt>
      <trkpt lat="43.73172" lon="7.40208">
        <ele>552.963</ele>
        <time>2016-07-29T17:46:34Z</time>
      </trkpt>
      <trkpt lat="43.73175" lon="7.40204">
        <ele>553</ele>
        <time>2016-07-29T17:46:38Z</time>
      </trkpt>
      <trkpt lat="43.73178" lon="7.40197">
        <ele>553.521</ele>
        <time>2016-07-29T17:46:43Z</time>
      </trkpt>
      <trkpt lat="43.73182" lon="7.40194">
        <ele>554.175</ele>
        <time>2016-07-29T17:46:47Z</time>
      </trkpt>
      <trkpt lat="43.73187" lon="7.4019">
        <ele>554.024</ele>
        <time>2016-07-29T17:46:52Z</time>
      </trkpt>
      <trkpt lat="43.73192" lon="7.40189">
        <ele>553.191</ele>
        <time>2016-07-29T17:46:57Z</time>
      </trkpt>
      <trkpt lat="43.73197" lon="7.40188">
        <ele>551.913</ele>
        <time>2016-07-29T17:47:02Z</time>
      </trkpt>
      <trkpt lat="43.73198" lon="7.40189">
        <ele>551.283</ele>
        <time>2016-07-29T17:47:07Z</time>
      </trkpt>
      <trkpt lat="43.73203" lon="7.4019">
        <ele>550.031</ele>
        <time>2016-07-29T17:47:11Z</time>
      </trkpt>
      <trkpt lat="43.73204" lon="7.4019">
        <ele>550.136</ele>
        <time>2016-07-29T17:47:14Z</time>
      </trkpt>
      <trkpt lat="43.73208" lon="7.40189">
        <ele>549.586</ele>
        <time>2016-07-29T17:47:16Z</time>
      </trkpt>
      <trkpt lat="43.73213" lon="7.40188">
        <ele>549.995</ele>
        <time>2016-07-29T17:47:20Z</time>
      </trkpt>
      <trkpt lat="43.73218" lon="7.40187">
        <ele>549.484</ele>
        <time>2016-07-29T17:47:25Z</time>
      </trkpt>
      <trkpt lat="43.73218" lon="7.40187">
        <ele>549.484</ele>
        <time>2016-07-29T17:47:26Z</time>
      </trkpt>
      <trkpt lat="43.73223" lon="7.40185">
        <ele>548.873</ele>
        <time>2016-07-29T17:47:31Z</time>
      </trkpt>
      <trkpt lat="43.73218" lon="7.40186">
        <ele>549.064</ele>
        <time>2016-07-29T17:47:38Z</time>
      </trkpt>
      <trkpt lat="43.73213" lon="7.40188">
        <ele>549.53</ele>
        <time>2016-07-29T17:47:43Z</time>
      </trkpt>
      <trkpt lat="43.73217" lon="7.40184">
        <ele>549.647</ele>
        <time>2016-07-29T17:48:00Z</time>
      </trkpt>
      <trkpt lat="43.73222" lon="7.40184">
        <ele>549.512</ele>
        <time>2016-07-29T17:48:05Z</time>
      </trkpt>
      <trkpt lat="43.73226" lon="7.40183">
        <ele>548.716</ele>
        <time>2016-07-29T17:48:09Z</time>
      </trkpt>
      <trkpt lat="43.73231" lon="7.40182">
        <ele>549.108</ele>
        <time>2016-07-29T17:48:14Z</time>
      </trkpt>
      <trkpt lat="43.73236" lon="7.40181">
        <ele>548.675</ele>
        <time>2016-07-29T17:48:19Z</time>
      </trkpt>
      <trkpt lat="43.73241" lon="7.40178">
        <ele>548.338</ele>
        <time>2016-07-29T17:48:24Z</time>
      </trkpt>
      <trkpt lat="43.73246" lon="7.40177">
        <ele>547.718</ele>
        <time>2016-07-29T17:48:28Z</time>
      </trkpt>
      <trkpt lat="43.73251" lon="7.40177">
        <ele>547.406</ele>
        <time>2016-07-29T17:48:35Z</time>
      </trkpt>
      <trkpt lat="43.73255" lon="7.40175">
        <ele>546.062</ele>
        <time>2016-07-29T17:48:39Z</time>
      </trkpt>
      <trkpt lat="43.7326" lon="7.40175">
        <ele>546.065</ele>
        <time>2016-07-29T17:48:43Z</time>
      </trkpt>
      <trkpt lat="43.73266" lon="7.40175">
        <ele>546.07</ele>
        <time>2016-07-29T17:48:48Z</time>
      </trkpt>
      <trkpt lat="43.73267" lon="7.40174">
        <ele>546.116</ele>
        <time>2016-07-29T17:48:50Z</time>
      </trkpt>
      <trkpt lat="43.7327" lon="7.40169">
        <ele>546.231</ele>
        <time>2016-07-29T17:48:59Z</time>
      </trkpt>
      <trkpt lat="43.73275" lon="7.4017">
        <ele>546.091</ele>
        <time>2016-07-29T17:49:03Z</time>
      </trkpt>
      <trkpt lat="43.7328" lon="7.40171">
        <ele>545.601</ele>
        <time>2016-07-29T17:49:07Z</time>
      </trkpt>
      <trkpt lat="43.73284" lon="7.40173">
        <ele>545.869</ele>
        <time>2016-07-29T17:49:11Z</time>
      </trkpt>
      <trkpt lat="43.73289" lon="7.40176">
        <ele>545.06</ele>
        <time>2016-07-29T17:49:16Z</time>
      </trkpt>
      <trkpt lat="43.73294" lon="7.40174">
        <ele>544.528</ele>
        <time>2016-07-29T17:49:22Z</time>
      </trkpt>
      <trkpt lat="43.73299" lon="7.40171">
        <ele>543.733</ele>
        <time>2016-07-29T17:49:27Z</time>
      </trkpt>
      <trkpt lat="43.73302" lon="7.40172">
        <ele>543.402</ele>
        <time>2016-07-29T17:49:30Z</time>
      </trkpt>
      <trkpt lat="43.73308" lon="7.40174">
        <ele>544.569</ele>
        <time>2016-07-29T17:49:33Z</time>
      </trkpt>
      <trkpt lat="43.73313" lon="7.40174">
        <ele>544.655</ele>
        <time>2016-07-29T17:49:37Z</time>
      </trkpt>
      <trkpt lat="43.73313" lon="7.40171">
        <ele>541.989</ele>
        <time>2016-07-29T17:50:15Z</time>
      </trkpt>
      <trkpt lat="43.73319" lon="7.40173">
        <ele>540.654</ele>
        <time>2016-07-29T17:50:21Z</time>
      </trkpt>
      <trkpt lat="43.73324" lon="7.40173">
        <ele>539.95</ele>
        <time>2016-07-29T17:50:26Z</time>
      </trkpt>
      <trkpt lat="43.73329" lon="7.40173">
        <ele>539.286</ele>
        <time>2016-07-29T17:50:30Z</time>
      </trkpt>
      <trkpt lat="43.73335" lon="7.40173">
        <ele>539.724</ele>
        <time>2016-07-29T17:50:34Z</time>
      </trkpt>
      <trkpt lat="43.73341" lon="7.40172">
        <ele>540.263</ele>
        <time>2016-07-29T17:50:38Z</time>
      </trkpt>
      <trkpt lat="43.73347" lon="7.40169">
        <ele>540.852</ele>
        <time>2016-07-29T17:50:42Z</time>
      </trkpt>
      <trkpt lat="43.73352" lon="7.4017">
        <ele>540.965</ele>
        <time>2016-07-29T17:50:47Z</time>
      </trkpt>
      <trkpt lat="43.73357" lon="7.40172">
        <ele>539.749</ele>
        <time>2016-07-29T17:50:53Z</time>
      </trkpt>
      <trkpt lat="43.73358" lon="7.40173">
        <ele>538.984</ele>
        <time>2016-07-29T17:50:55Z</time>
      </trkpt>
      <trkpt lat="43.73363" lon="7.40176">
        <ele>537.645</ele>
        <time>2016-07-29T17:51:19Z</time>
      </trkpt>
      <trkpt lat="43.73368" lon="7.40175">
        <ele>537.594</ele>
        <time>2016-07-29T17:51:23Z</time>
      </trkpt>
      <trkpt lat="43.73374" lon="7.40176">
        <ele>537.925</ele>
        <time>2016-07-29T17:51:27Z</time>
      </trkpt>
      <trkpt lat="43.73379" lon="7.40176">
        <ele>538.151</ele>
        <time>2016-07-29T17:51:32Z</time>
      </trkpt>
      <trkpt lat="43.73384" lon="7.40176">
        <ele>538.047</ele>
        <time>2016-07-29T17:51:36Z</time>
      </trkpt>
      <trkpt lat="43.73389" lon="7.40177">
        <ele>537.436</ele>
        <time>2016-07-29T17:51:40Z</time>
      </trkpt>
      <trkpt lat="43.73395" lon="7.40177">
        <ele>537.78</ele>
        <time>2016-07-29T17:51:45Z</time>
      </trkpt>
      <trkpt lat="43.73399" lon="7.40179">
        <ele>536.958</ele>
        <time>2016-07-29T17:51:49Z</time>
      </trkpt>
      <trkpt lat="43.73403" lon="7.40181">
        <ele>535.98</ele>
        <time>2016-07-29T17:51:52Z</time>
      </trkpt>
      <trkpt lat="43.73409" lon="7.40181">
        <ele>535.408</ele>
        <time>2016-07-29T17:51:56Z</time>
      </trkpt>
      <trkpt lat="43.73414" lon="7.40181">
        <ele>535.31</ele>
        <time>2016-07-29T17:52:00Z</time>
      </trkpt>
      <trkpt lat="43.73418" lon="7.40181">
        <ele>534.919</ele>
        <time>2016-07-29T17:52:05Z</time>
      </trkpt>
      <trkpt lat="43.73423" lon="7.40179">
        <ele>532.497</ele>
        <time>2016-07-29T17:52:36Z</time>
      </trkpt>
      <trkpt lat="43.73428" lon="7.40178">
        <ele>531.426</ele>
        <time>2016-07-29T17:52:41Z</time>
      </trkpt>
      <trkpt lat="43.73433" lon="7.40176">
        <ele>531.253</ele>
        <time>2016-07-29T17:52:45Z</time>
      </trkpt>
      <trkpt lat="43.73438" lon="7.40176">
        <ele>529.943</ele>
        <time>2016-07-29T17:52:49Z</time>
      </trkpt>
      <trkpt lat="43.73442" lon="7.40173">
        <ele>529.184</ele>
        <time>2016-07-29T17:52:54Z</time>
      </trkpt>
      <trkpt lat="43.73447" lon="7.4017">
        <ele>528.621</ele>
        <time>2016-07-29T17:52:58Z</time>
      </trkpt>
      <trkpt lat="43.73451" lon="7.40167">
        <ele>529.145</ele>
        <time>2016-07-29T17:53:02Z</time>
      </trkpt>
      <trkpt lat="43.73456" lon="7.40164">
        <ele>528.049</ele>
        <time>2016-07-29T17:53:06Z</time>
      </trkpt>
      <trkpt lat="43.73461" lon="7.4016">
        <ele>528.137</ele>
        <time>2016-07-29T17:53:10Z</time>
      </trkpt>
      <trkpt lat="43.73465" lon="7.40156">
        <ele>528.899</ele>
        <time>2016-07-29T17:53:14Z</time>
      </trkpt>
      <trkpt lat="43.73469" lon="7.40152">
        <ele>528.697</ele>
        <time>2016-07-29T17:53:18Z</time>
      </trkpt>
      <trkpt lat="43.73474" lon="7.40148">
        <ele>527.893</ele>
        <time>2016-07-29T17:53:22Z</time>
      </trkpt>
      <trkpt lat="43.73478" lon="7.40142">
        <ele>527.882</ele>
        <time>2016-07-29T17:53:27Z</time>
      </trkpt>
      <trkpt lat="43.73482" lon="7.40136">
        <ele>526.867</ele>
        <time>2016-07-29T17:53:31Z</time>
      </trkpt>
      <trkpt lat="43.73485" lon="7.40133">
        <ele>526.935</ele>
        <time>2016-07-29T17:53:34Z</time>
      </trkpt>
      <trkpt lat="43.73489" lon="7.40128">
        <ele>526.796</ele>
        <time>2016-07-29T17:53:37Z</time>
      </trkpt>
      <trkpt lat="43.73493" lon="7.40124">
        <ele>526.617</ele>
        <time>2016-07-29T17:53:41Z</time>
      </trkpt>
      <trkpt lat="43.73497" lon="7.40121">
        <ele>525.477</ele>
        <time>2016-07-29T17:53:45Z</time>
      </trkpt>
      <trkpt lat="43.73503" lon="7.4012">
        <ele>524.621</ele>
        <time>2016-07-29T17:53:49Z</time>
      </trkpt>
      <trkpt lat="43.73508" lon="7.4012">
        <ele>525.314</ele>
        <time>2016-07-29T17:53:53Z</time>
      </trkpt>
      <trkpt lat="43.73513" lon="7.40118">
        <ele>526.024</ele>
        <time>2016-07-29T17:53:58Z</time>
      </trkpt>
      <trkpt lat="43.73518" lon="7.4012">
        <ele>525.145</ele>
        <time>2016-07-29T17:54:04Z</time>
      </trkpt>
      <trkpt lat="43.73523" lon="7.40121">
        <ele>524.997</ele>
        <time>2016-07-29T17:54:08Z</time>
      </trkpt>
      <trkpt lat="43.73529" lon="7.40121">
        <ele>524.59</ele>
        <time>2016-07-29T17:54:12Z</time>
      </trkpt>
      <trkpt lat="43.73533" lon="7.4012">
        <ele>523.952</ele>
        <time>2016-07-29T17:54:16Z</time>
      </trkpt>
      <trkpt lat="43.73538" lon="7.40116">
        <ele>522.942</ele>
        <time>2016-07-29T17:54:21Z</time>
      </trkpt>
      <trkpt lat="43.73542" lon="7.40112">
        <ele>523.366</ele>
        <time>2016-07-29T17:54:24Z</time>
      </trkpt>
      <trkpt lat="43.73545" lon="7.40106">
        <ele>523.221</ele>
        <time>2016-07-29T17:54:28Z</time>
      </trkpt>
      <trkpt lat="43.73547" lon="7.40101">
        <ele>522.329</ele>
        <time>2016-07-29T17:54:33Z</time>
      </trkpt>
      <trkpt lat="43.7355" lon="7.40096">
        <ele>522.02</ele>
        <time>2016-07-29T17:54:37Z</time>
      </trkpt>
      <trkpt lat="43.73553" lon="7.4009">
        <ele>522.052</ele>
        <time>2016-07-29T17:54:41Z</time>
      </trkpt>
      <trkpt lat="43.73556" lon="7.40084">
        <ele>520.927</ele>
        <time>2016-07-29T17:54:46Z</time>
      </trkpt>
      <trkpt lat="43.73558" lon="7.40078">
        <ele>520.376</ele>
        <time>2016-07-29T17:54:50Z</time>
      </trkpt>
      <trkpt lat="43.73562" lon="7.40073">
        <ele>519.832</ele>
        <time>2016-07-29T17:54:54Z</time>
      </trkpt>
      <trkpt lat="43.73566" lon="7.40067">
        <ele>519.539</ele>
        <time>2016-07-29T17:54:58Z</time>
      </trkpt>
      <trkpt lat="43.7357" lon="7.40063">
        <ele>519.859</ele>
        <time>2016-07-29T17:55:02Z</time>
      </trkpt>
      <trkpt lat="43.73574" lon="7.4006">
        <ele>518.173</ele>
        <time>2016-07-29T17:55:07Z</time>
      </trkpt>
      <trkpt lat="43.73578" lon="7.40056">
        <ele>518.82</ele>
        <time>2016-07-29T17:55:11Z</time>
      </trkpt>
      <trkpt lat="43.73584" lon="7.40054">
        <ele>518.745</ele>
        <time>2016-07-29T17:55:15Z</time>
      </trkpt>
      <trkpt lat="43.73588" lon="7.40051">
        <ele>518.004</ele>
        <time>2016-07-29T17:55:19Z</time>
      </trkpt>
      <trkpt lat="43.73592" lon="7.40047">
        <ele>517.036</ele>
        <time>2016-07-29T17:55:24Z</time>
      </trkpt>
      <trkpt lat="43.73597" lon="7.40045">
        <ele>517.219</ele>
        <time>2016-07-29T17:55:30Z</time>
      </trkpt>
      <trkpt lat="43.73601" lon="7.40041">
        <ele>516.439</ele>
        <time>2016-07-29T17:55:34Z</time>
      </trkpt>
      <trkpt lat="43.73606" lon="7.40038">
        <ele>516.258</ele>
        <time>2016-07-29T17:55:38Z</time>
      </trkpt>
      <trkpt lat="43.73611" lon="7.40035">
        <ele>516.41</ele>
        <time>2016-07-29T17:55:42Z</time>
      </trkpt>
      <trkpt lat="43.73616" lon="7.40031">
        <ele>516.412</ele>
        <time>2016-07-29T17:55:46Z</time>
      </trkpt>
      <trkpt lat="43.7362" lon="7.40027">
        <ele>516.334</ele>
        <time>2016-07-29T17:55:50Z</time>
      </trkpt>
      <trkpt lat="43.73625" lon="7.40024">
        <ele>515.831</ele>
        <time>2016-07-29T17:55:54Z</time>
      </trkpt>
      <trkpt lat="43.7363" lon="7.40022">
        <ele>515.309</ele>
        <time>2016-07-29T17:55:59Z</time>
      </trkpt>
      <trkpt lat="43.73634" lon="7.40019">
        <ele>514.454</ele>
        <time>2016-07-29T17:56:12Z</time>
      </trkpt>
      <trkpt lat="43.73637" lon="7.40015">
        <ele>513.464</ele>
        <time>2016-07-29T17:56:16Z</time>
      </trkpt>
      <trkpt lat="43.73642" lon="7.40012">
        <ele>513.682</ele>
        <time>2016-07-29T17:56:20Z</time>
      </trkpt>
      <trkpt lat="43.73646" lon="7.40009">
        <ele>512.226</ele>
        <time>2016-07-29T17:56:24Z</time>
      </trkpt>
      <trkpt lat="43.73651" lon="7.40007">
        <ele>512.544</ele>
        <time>2016-07-29T17:56:27Z</time>
      </trkpt>
      <trkpt lat="43.73656" lon="7.40006">
        <ele>513.82</ele>
        <time>2016-07-29T17:56:31Z</time>
      </trkpt>
      <trkpt lat="43.73661" lon="7.40005">
        <ele>512.181</ele>
        <time>2016-07-29T17:56:38Z</time>
      </trkpt>
      <trkpt lat="43.73665" lon="7.40003">
        <ele>511.943</ele>
        <time>2016-07-29T17:56:42Z</time>
      </trkpt>
      <trkpt lat="43.7367" lon="7.40001">
        <ele>512.084</ele>
        <time>2016-07-29T17:56:46Z</time>
      </trkpt>
      <trkpt lat="43.73675" lon="7.39998">
        <ele>511.658</ele>
        <time>2016-07-29T17:56:50Z</time>
      </trkpt>
      <trkpt lat="43.7368" lon="7.39998">
        <ele>511.098</ele>
        <time>2016-07-29T17:56:55Z</time>
      </trkpt>
      <trkpt lat="43.73684" lon="7.40001">
        <ele>507.862</ele>
        <time>2016-07-29T17:58:36Z</time>
      </trkpt>
      <trkpt lat="43.73688" lon="7.4">
        <ele>509.412</ele>
        <time>2016-07-29T17:58:38Z</time>
      </trkpt>
      <trkpt lat="43.73694" lon="7.39999">
        <ele>511.029</ele>
        <time>2016-07-29T17:58:41Z</time>
      </trkpt>
      <trkpt lat="43.737" lon="7.39998">
        <ele>511.631</ele>
        <time>2016-07-29T17:58:44Z</time>
      </trkpt>
      <trkpt lat="43.73705" lon="7.39996">
        <ele>511.582</ele>
        <time>2016-07-29T17:58:47Z</time>
      </trkpt>
      <trkpt lat="43.7371" lon="7.39992">
        <ele>509.918</ele>
        <time>2016-07-29T17:58:53Z</time>
      </trkpt>
      <trkpt lat="43.73715" lon="7.39994">
        <ele>509.238</ele>
        <time>2016-07-29T17:58:57Z</time>
      </trkpt>
      <trkpt lat="43.7372" lon="7.39996">
        <ele>508.55</ele>
        <time>2016-07-29T17:59:01Z</time>
      </trkpt>
      <trkpt lat="43.73725" lon="7.39996">
        <ele>506.415</ele>
        <time>2016-07-29T17:59:06Z</time>
      </trkpt>
      <trkpt lat="43.7373" lon="7.39999">
        <ele>505.692</ele>
        <time>2016-07-29T17:59:10Z</time>
      </trkpt>
      <trkpt lat="43.73734" lon="7.40002">
        <ele>505.05</ele>
        <time>2016-07-29T17:59:14Z</time>
      </trkpt>
      <trkpt lat="43.73738" lon="7.40006">
        <ele>504.279</ele>
        <time>2016-07-29T17:59:18Z</time>
      </trkpt>
      <trkpt lat="43.73743" lon="7.40009">
        <ele>503.766</ele>
        <time>2016-07-29T17:59:22Z</time>
      </trkpt>
      <trkpt lat="43.73748" lon="7.40013">
        <ele>502.951</ele>
        <time>2016-07-29T17:59:26Z</time>
      </trkpt>
      <trkpt lat="43.73752" lon="7.40017">
        <ele>502.49</ele>
        <time>2016-07-29T17:59:30Z</time>
      </trkpt>
      <trkpt lat="43.73756" lon="7.40022">
        <ele>502.296</ele>
        <time>2016-07-29T17:59:34Z</time>
      </trkpt>
      <trkpt lat="43.7376" lon="7.40027">
        <ele>502.783</ele>
        <time>2016-07-29T17:59:38Z</time>
      </trkpt>
      <trkpt lat="43.73764" lon="7.40032">
        <ele>501.822</ele>
        <time>2016-07-29T17:59:42Z</time>
      </trkpt>
      <trkpt lat="43.73767" lon="7.40038">
        <ele>502.393</ele>
        <time>2016-07-29T17:59:46Z</time>
      </trkpt>
      <trkpt lat="43.73771" lon="7.40043">
        <ele>502.249</ele>
        <time>2016-07-29T17:59:50Z</time>
      </trkpt>
      <trkpt lat="43.73774" lon="7.40049">
        <ele>501.554</ele>
        <time>2016-07-29T17:59:54Z</time>
      </trkpt>
      <trkpt lat="43.73778" lon="7.40055">
        <ele>501.826</ele>
        <time>2016-07-29T17:59:58Z</time>
      </trkpt>
      <trkpt lat="43.73783" lon="7.4006">
        <ele>500.653</ele>
        <time>2016-07-29T18:00:02Z</time>
      </trkpt>
      <trkpt lat="43.73786" lon="7.40064">
        <ele>501.324</ele>
        <time>2016-07-29T18:00:06Z</time>
      </trkpt>
      <trkpt lat="43.7379" lon="7.40069">
        <ele>501.521</ele>
        <time>2016-07-29T18:00:11Z</time>
      </trkpt>
      <trkpt lat="43.73795" lon="7.40067">
        <ele>502.082</ele>
        <time>2016-07-29T18:00:15Z</time>
      </trkpt>
      <trkpt lat="43.738" lon="7.40068">
        <ele>500.884</ele>
        <time>2016-07-29T18:00:19Z</time>
      </trkpt>
      <trkpt lat="43.73804" lon="7.4007">
        <ele>501.412</ele>
        <time>2016-07-29T18:00:28Z</time>
      </trkpt>
      <trkpt lat="43.7381" lon="7.40071">
        <ele>499.647</ele>
        <time>2016-07-29T18:00:33Z</time>
      </trkpt>
      <trkpt lat="43.73815" lon="7.40071">
        <ele>498.858</ele>
        <time>2016-07-29T18:00:36Z</time>
      </trkpt>
      <trkpt lat="43.7382" lon="7.40072">
        <ele>498.027</ele>
        <time>2016-07-29T18:00:39Z</time>
      </trkpt>
      <trkpt lat="43.73825" lon="7.40072">
        <ele>497.972</ele>
        <time>2016-07-29T18:00:42Z</time>
      </trkpt>
      <trkpt lat="43.7383" lon="7.40072">
        <ele>497.511</ele>
        <time>2016-07-29T18:00:45Z</time>
      </trkpt>
      <trkpt lat="43.73835" lon="7.40072">
        <ele>497.136</ele>
        <time>2016-07-29T18:00:48Z</time>
      </trkpt>
      <trkpt lat="43.73841" lon="7.40072">
        <ele>496.267</ele>
        <time>2016-07-29T18:00:52Z</time>
      </trkpt>
      <trkpt lat="43.73845" lon="7.40072">
        <ele>496.216</ele>
        <time>2016-07-29T18:00:55Z</time>
      </trkpt>
      <trkpt lat="43.73851" lon="7.40074">
        <ele>495.09</ele>
        <time>2016-07-29T18:01:15Z</time>
      </trkpt>
      <trkpt lat="43.73856" lon="7.40075">
        <ele>495.283</ele>
        <time>2016-07-29T18:01:19Z</time>
      </trkpt>
      <trkpt lat="43.73861" lon="7.40077">
        <ele>495.485</ele>
        <time>2016-07-29T18:01:23Z</time>
      </trkpt>
      <trkpt lat="43.73865" lon="7.40077">
        <ele>495.308</ele>
        <time>2016-07-29T18:01:27Z</time>
      </trkpt>
      <trkpt lat="43.7387" lon="7.40081">
        <ele>494.484</ele>
        <time>2016-07-29T18:01:47Z</time>
      </trkpt>
      <trkpt lat="43.73876" lon="7.40081">
        <ele>495.021</ele>
        <time>2016-07-29T18:01:51Z</time>
      </trkpt>
      <trkpt lat="43.73881" lon="7.40081">
        <ele>495.208</ele>
        <time>2016-07-29T18:01:56Z</time>
      </trkpt>
      <trkpt lat="43.73886" lon="7.40082">
        <ele>492.671</ele>
        <time>2016-07-29T18:02:01Z</time>
      </trkpt>
      <trkpt lat="43.73892" lon="7.40081">
        <ele>492.14</ele>
        <time>2016-07-29T18:02:05Z</time>
      </trkpt>
      <trkpt lat="43.73894" lon="7.40081">
        <ele>492.13</ele>
        <time>2016-07-29T18:02:08Z</time>
      </trkpt>
      <trkpt lat="43.73899" lon="7.40081">
        <ele>490.151</ele>
        <time>2016-07-29T18:02:11Z</time>
      </trkpt>
      <trkpt lat="43.73904" lon="7.40083">
        <ele>489.637</ele>
        <time>2016-07-29T18:02:15Z</time>
      </trkpt>
      <trkpt lat="43.73909" lon="7.40083">
        <ele>490.979</ele>
        <time>2016-07-29T18:02:19Z</time>
      </trkpt>
      <trkpt lat="43.73913" lon="7.40083">
        <ele>490.622</ele>
        <time>2016-07-29T18:02:23Z</time>
      </trkpt>
      <trkpt lat="43.73919" lon="7.40082">
        <ele>490.306</ele>
        <time>2016-07-29T18:02:27Z</time>
      </trkpt>
      <trkpt lat="43.73924" lon="7.40081">
        <ele>490.763</ele>
        <time>2016-07-29T18:02:31Z</time>
      </trkpt>
      <trkpt lat="43.73929" lon="7.40081">
        <ele>489.786</ele>
        <time>2016-07-29T18:02:35Z</time>
      </trkpt>
      <trkpt lat="43.73934" lon="7.40081">
        <ele>489.903</ele>
        <time>2016-07-29T18:02:39Z</time>
      </trkpt>
      <trkpt lat="43.73939" lon="7.40081">
        <ele>489.743</ele>
        <time>2016-07-29T18:02:42Z</time>
      </trkpt>
      <trkpt lat="43.73944" lon="7.40077">
        <ele>490.615</ele>
        <time>2016-07-29T18:02:49Z</time>
      </trkpt>
      <trkpt lat="43.73947" lon="7.40072">
        <ele>490.379</ele>
        <time>2016-07-29T18:02:54Z</time>
      </trkpt>
      <trkpt lat="43.7395" lon="7.40067">
        <ele>490.218</ele>
        <time>2016-07-29T18:03:00Z</time>
      </trkpt>
      <trkpt lat="43.73952" lon="7.40061">
        <ele>488.596</ele>
        <time>2016-07-29T18:03:09Z</time>
      </trkpt>
      <trkpt lat="43.73955" lon="7.40055">
        <ele>488.988</ele>
        <time>2016-07-29T18:03:13Z</time>
      </trkpt>
      <trkpt lat="43.73959" lon="7.4005">
        <ele>489.141</ele>
        <time>2016-07-29T18:03:17Z</time>
      </trkpt>
      <trkpt lat="43.73962" lon="7.40045">
        <ele>489.02</ele>
        <time>2016-07-29T18:03:21Z</time>
      </trkpt>
      <trkpt lat="43.73967" lon="7.40041">
        <ele>489.084</ele>
        <time>2016-07-29T18:03:25Z</time>
      </trkpt>
      <trkpt lat="43.73971" lon="7.40037">
        <ele>488.896</ele>
        <time>2016-07-29T18:03:29Z</time>
      </trkpt>
      <trkpt lat="43.73974" lon="7.40032">
        <ele>489.212</ele>
        <time>2016-07-29T18:03:33Z</time>
      </trkpt>
      <trkpt lat="43.73978" lon="7.40027">
        <ele>489.192</ele>
        <time>2016-07-29T18:03:37Z</time>
      </trkpt>
      <trkpt lat="43.73981" lon="7.4002">
        <ele>488.526</ele>
        <time>2016-07-29T18:03:42Z</time>
      </trkpt>
      <trkpt lat="43.73984" lon="7.40016">
        <ele>488.677</ele>
        <time>2016-07-29T18:03:46Z</time>
      </trkpt>
      <trkpt lat="43.73987" lon="7.4001">
        <ele>488.022</ele>
        <time>2016-07-29T18:03:51Z</time>
      </trkpt>
      <trkpt lat="43.7399" lon="7.40005">
        <ele>488.607</ele>
        <time>2016-07-29T18:04:03Z</time>
      </trkpt>
      <trkpt lat="43.73993" lon="7.40001">
        <ele>488.334</ele>
        <time>2016-07-29T18:04:06Z</time>
      </trkpt>
      <trkpt lat="43.73997" lon="7.39996">
        <ele>487.41</ele>
        <time>2016-07-29T18:04:11Z</time>
      </trkpt>
      <trkpt lat="43.74" lon="7.3999">
        <ele>485.954</ele>
        <time>2016-07-29T18:04:15Z</time>
      </trkpt>
      <trkpt lat="43.74003" lon="7.39984">
        <ele>486.208</ele>
        <time>2016-07-29T18:04:19Z</time>
      </trkpt>
      <trkpt lat="43.74006" lon="7.39979">
        <ele>485.935</ele>
        <time>2016-07-29T18:04:23Z</time>
      </trkpt>
      <trkpt lat="43.7401" lon="7.39974">
        <ele>484.756</ele>
        <time>2016-07-29T18:04:27Z</time>
      </trkpt>
      <trkpt lat="43.74014" lon="7.3997">
        <ele>483.896</ele>
        <time>2016-07-29T18:04:31Z</time>
      </trkpt>
      <trkpt lat="43.74018" lon="7.39965">
        <ele>483.988</ele>
        <time>2016-07-29T18:04:36Z</time>
      </trkpt>
      <trkpt lat="43.74022" lon="7.39961">
        <ele>483.757</ele>
        <time>2016-07-29T18:04:40Z</time>
      </trkpt>
      <trkpt lat="43.74026" lon="7.39957">
        <ele>483.349</ele>
        <time>2016-07-29T18:04:44Z</time>
      </trkpt>
      <trkpt lat="43.74031" lon="7.39952">
        <ele>483.331</ele>
        <time>2016-07-29T18:04:49Z</time>
      </trkpt>
      <trkpt lat="43.74036" lon="7.39948">
        <ele>483.995</ele>
        <time>2016-07-29T18:04:53Z</time>
      </trkpt>
      <trkpt lat="43.74039" lon="7.39944">
        <ele>483.36</ele>
        <time>2016-07-29T18:04:57Z</time>
      </trkpt>
      <trkpt lat="43.74043" lon="7.39939">
        <ele>482.679</ele>
        <time>2016-07-29T18:05:01Z</time>
      </trkpt>
      <trkpt lat="43.74047" lon="7.39935">
        <ele>482.551</ele>
        <time>2016-07-29T18:05:05Z</time>
      </trkpt>
      <trkpt lat="43.74052" lon="7.39934">
        <ele>482.802</ele>
        <time>2016-07-29T18:05:23Z</time>
      </trkpt>
      <trkpt lat="43.74057" lon="7.39931">
        <ele>482.732</ele>
        <time>2016-07-29T18:05:27Z</time>
      </trkpt>
      <trkpt lat="43.74061" lon="7.39927">
        <ele>481.608</ele>
        <time>2016-07-29T18:05:31Z</time>
      </trkpt>
      <trkpt lat="43.74066" lon="7.39922">
        <ele>482.129</ele>
        <time>2016-07-29T18:05:35Z</time>
      </trkpt>
      <trkpt lat="43.74069" lon="7.39918">
        <ele>482.254</ele>
        <time>2016-07-29T18:05:39Z</time>
      </trkpt>
      <trkpt lat="43.74074" lon="7.39915">
        <ele>482.268</ele>
        <time>2016-07-29T18:05:42Z</time>
      </trkpt>
      <trkpt lat="43.74078" lon="7.39913">
        <ele>483.122</ele>
        <time>2016-07-29T18:05:45Z</time>
      </trkpt>
      <trkpt lat="43.74083" lon="7.39912">
        <ele>483.585</ele>
        <time>2016-07-29T18:05:52Z</time>
      </trkpt>
      <trkpt lat="43.74087" lon="7.39908">
        <ele>480.917</ele>
        <time>2016-07-29T18:06:02Z</time>
      </trkpt>
      <trkpt lat="43.74092" lon="7.39908">
        <ele>480.089</ele>
        <time>2016-07-29T18:06:36Z</time>
      </trkpt>
      <trkpt lat="43.74098" lon="7.39908">
        <ele>480.367</ele>
        <time>2016-07-29T18:06:40Z</time>
      </trkpt>
      <trkpt lat="43.74103" lon="7.39908">
        <ele>479.742</ele>
        <time>2016-07-29T18:06:43Z</time>
      </trkpt>
      <trkpt lat="43.74107" lon="7.39909">
        <ele>481.078</ele>
        <time>2016-07-29T18:06:46Z</time>
      </trkpt>
      <trkpt lat="43.74111" lon="7.39913">
        <ele>480.826</ele>
        <time>2016-07-29T18:06:50Z</time>
      </trkpt>
      <trkpt lat="43.74117" lon="7.39914">
        <ele>480.284</ele>
        <time>2016-07-29T18:06:55Z</time>
      </trkpt>
      <trkpt lat="43.74121" lon="7.39913">
        <ele>479.567</ele>
        <time>2016-07-29T18:06:59Z</time>
      </trkpt>
      <trkpt lat="43.74127" lon="7.39913">
        <ele>478.892</ele>
        <time>2016-07-29T18:07:03Z</time>
      </trkpt>
      <trkpt lat="43.74132" lon="7.39912">
        <ele>477.891</ele>
        <time>2016-07-29T18:07:07Z</time>
      </trkpt>
      <trkpt lat="43.74137" lon="7.39913">
        <ele>477.432</ele>
        <time>2016-07-29T18:07:11Z</time>
      </trkpt>
      <trkpt lat="43.74141" lon="7.39915">
        <ele>477.658</ele>
        <time>2016-07-29T18:07:16Z</time>
      </trkpt>
      <trkpt lat="43.74145" lon="7.39921">
        <ele>474.783</ele>
        <time>2016-07-29T18:07:26Z</time>
      </trkpt>
      <trkpt lat="43.74149" lon="7.39923">
        <ele>473.406</ele>
        <time>2016-07-29T18:07:30Z</time>
      </trkpt>
      <trkpt lat="43.74153" lon="7.39927">
        <ele>473.584</ele>
        <time>2016-07-29T18:07:35Z</time>
      </trkpt>
      <trkpt lat="43.74158" lon="7.39932">
        <ele>472.398</ele>
        <time>2016-07-29T18:07:41Z</time>
      </trkpt>
      <trkpt lat="43.74162" lon="7.39935">
        <ele>472.472</ele>
        <time>2016-07-29T18:07:45Z</time>
      </trkpt>
      <trkpt lat="43.74166" lon="7.39937">
        <ele>472.645</ele>
        <time>2016-07-29T18:07:48Z</time>
      </trkpt>
      <trkpt lat="43.74172" lon="7.39938">
        <ele>474.124</ele>
        <time>2016-07-29T18:07:57Z</time>
      </trkpt>
      <trkpt lat="43.74172" lon="7.39939">
        <ele>474.407</ele>
        <time>2016-07-29T18:08:04Z</time>
      </trkpt>
      <trkpt lat="43.74172" lon="7.39944">
        <ele>474.881</ele>
        <time>2016-07-29T18:08:16Z</time>
      </trkpt>
      <trkpt lat="43.74172" lon="7.39951">
        <ele>475.204</ele>
        <time>2016-07-29T18:08:22Z</time>
      </trkpt>
      <trkpt lat="43.74175" lon="7.39957">
        <ele>475.491</ele>
        <time>2016-07-29T18:08:26Z</time>
      </trkpt>
      <trkpt lat="43.74179" lon="7.39961">
        <ele>476.386</ele>
        <time>2016-07-29T18:08:30Z</time>
      </trkpt>
      <trkpt lat="43.74184" lon="7.39965">
        <ele>477.66</ele>
        <time>2016-07-29T18:08:34Z</time>
      </trkpt>
      <trkpt lat="43.74187" lon="7.3997">
        <ele>477.542</ele>
        <time>2016-07-29T18:08:38Z</time>
      </trkpt>
      <trkpt lat="43.7419" lon="7.39976">
        <ele>477.659</ele>
        <time>2016-07-29T18:08:42Z</time>
      </trkpt>
      <trkpt lat="43.74192" lon="7.39981">
        <ele>477.723</ele>
        <time>2016-07-29T18:08:46Z</time>
      </trkpt>
      <trkpt lat="43.74195" lon="7.39988">
        <ele>477.687</ele>
        <time>2016-07-29T18:08:50Z</time>
      </trkpt>
      <trkpt lat="43.74197" lon="7.39994">
        <ele>477.838</ele>
        <time>2016-07-29T18:08:55Z</time>
      </trkpt>
      <trkpt lat="43.742" lon="7.40001">
        <ele>479.264</ele>
        <time>2016-07-29T18:09:00Z</time>
      </trkpt>
      <trkpt lat="43.74203" lon="7.40006">
        <ele>480.267</ele>
        <time>2016-07-29T18:09:04Z</time>
      </trkpt>
      <trkpt lat="43.74206" lon="7.40012">
        <ele>481.471</ele>
        <time>2016-07-29T18:09:09Z</time>
      </trkpt>
      <trkpt lat="43.74209" lon="7.40018">
        <ele>481.165</ele>
        <time>2016-07-29T18:09:14Z</time>
      </trkpt>
      <trkpt lat="43.74212" lon="7.40024">
        <ele>482.2</ele>
        <time>2016-07-29T18:09:19Z</time>
      </trkpt>
      <trkpt lat="43.74217" lon="7.40022">
        <ele>484.38</ele>
        <time>2016-07-29T18:09:33Z</time>
      </trkpt>
      <trkpt lat="43.74221" lon="7.4002">
        <ele>485.411</ele>
        <time>2016-07-29T18:09:38Z</time>
      </trkpt>
      <trkpt lat="43.74224" lon="7.4002">
        <ele>485.556</ele>
        <time>2016-07-29T18:09:42Z</time>
      </trkpt>
      <trkpt lat="43.74225" lon="7.4002">
        <ele>485.876</ele>
        <time>2016-07-29T18:09:43Z</time>
      </trkpt>
      <trkpt lat="43.74228" lon="7.40021">
        <ele>486.353</ele>
        <time>2016-07-29T18:09:46Z</time>
      </trkpt>
    </trkseg>
  </trk>
</gpx>